<?xml version="1.0" encoding="UTF-8" standalone="no" ?>
<gpx xmlns="http://www.topografix.com/GPX/1/1" xmlns:xsi="http://www.w3.org/2001/XMLSchema-instance" xsi:schemaLocation="http://www.topografix.com/GPX/1/1 http://www.topografix.com/GPX/1/1/gpx.xsd" version="1.1" creator="VisuGPX - https://www.visugpx.com">
  <metadata>
    <name>secteur Saverne - Dabo - Petite Pierre</name>
  </metadata>
  <trk>
    <name><![CDATA[secteur Saverne - Dabo - Petite Pierre_40]]></name>
    <trkseg>
      <trkpt lat="48.68884" lon="7.2556">
        <ele>478.3</ele>
        <time>2020-05-10T15:11:33Z</time>
      </trkpt>
      <trkpt lat="48.68884" lon="7.2556">
        <ele>478.3</ele>
        <time>2020-05-10T15:11:33Z</time>
      </trkpt>
      <trkpt lat="48.68884" lon="7.2556">
        <ele>478.3</ele>
        <time>2020-05-10T15:11:33Z</time>
      </trkpt>
      <trkpt lat="48.68884" lon="7.2556">
        <ele>478.3</ele>
        <time>2020-05-10T15:11:33Z</time>
      </trkpt>
      <trkpt lat="48.68884" lon="7.2556">
        <ele>478.3</ele>
        <time>2020-05-10T15:11:33Z</time>
      </trkpt>
      <trkpt lat="48.68888" lon="7.25563">
        <ele>478.4</ele>
        <time>2020-05-10T15:11:34Z</time>
      </trkpt>
      <trkpt lat="48.68891" lon="7.25566">
        <ele>478.5</ele>
        <time>2020-05-10T15:11:35Z</time>
      </trkpt>
      <trkpt lat="48.68896" lon="7.25574">
        <ele>478.6</ele>
        <time>2020-05-10T15:11:37Z</time>
      </trkpt>
      <trkpt lat="48.68898" lon="7.25579">
        <ele>478.6</ele>
        <time>2020-05-10T15:11:38Z</time>
      </trkpt>
      <trkpt lat="48.689" lon="7.25583">
        <ele>478.6</ele>
        <time>2020-05-10T15:11:39Z</time>
      </trkpt>
      <trkpt lat="48.68903" lon="7.25587">
        <ele>478.7</ele>
        <time>2020-05-10T15:11:40Z</time>
      </trkpt>
      <trkpt lat="48.68905" lon="7.25592">
        <ele>478.7</ele>
        <time>2020-05-10T15:11:41Z</time>
      </trkpt>
      <trkpt lat="48.68911" lon="7.25602">
        <ele>478.9</ele>
        <time>2020-05-10T15:11:43Z</time>
      </trkpt>
      <trkpt lat="48.68913" lon="7.25608">
        <ele>479</ele>
        <time>2020-05-10T15:11:44Z</time>
      </trkpt>
      <trkpt lat="48.6892" lon="7.25619">
        <ele>479.2</ele>
        <time>2020-05-10T15:11:46Z</time>
      </trkpt>
      <trkpt lat="48.68928" lon="7.25628">
        <ele>479.4</ele>
        <time>2020-05-10T15:11:48Z</time>
      </trkpt>
      <trkpt lat="48.68933" lon="7.25632">
        <ele>479.4</ele>
        <time>2020-05-10T15:11:49Z</time>
      </trkpt>
      <trkpt lat="48.68937" lon="7.25637">
        <ele>479.5</ele>
        <time>2020-05-10T15:11:50Z</time>
      </trkpt>
      <trkpt lat="48.68944" lon="7.25649">
        <ele>479.7</ele>
        <time>2020-05-10T15:11:52Z</time>
      </trkpt>
      <trkpt lat="48.68949" lon="7.25659">
        <ele>479.9</ele>
        <time>2020-05-10T15:11:54Z</time>
      </trkpt>
      <trkpt lat="48.68958" lon="7.25669">
        <ele>480.1</ele>
        <time>2020-05-10T15:11:56Z</time>
      </trkpt>
      <trkpt lat="48.68963" lon="7.25673">
        <ele>480.2</ele>
        <time>2020-05-10T15:11:57Z</time>
      </trkpt>
      <trkpt lat="48.68969" lon="7.25679">
        <ele>480.3</ele>
        <time>2020-05-10T15:11:59Z</time>
      </trkpt>
      <trkpt lat="48.68976" lon="7.25686">
        <ele>480.4</ele>
        <time>2020-05-10T15:12:00Z</time>
      </trkpt>
      <trkpt lat="48.68981" lon="7.25689">
        <ele>480.5</ele>
        <time>2020-05-10T15:12:01Z</time>
      </trkpt>
      <trkpt lat="48.6899" lon="7.25698">
        <ele>480.7</ele>
        <time>2020-05-10T15:12:03Z</time>
      </trkpt>
      <trkpt lat="48.68994" lon="7.25701">
        <ele>480.8</ele>
        <time>2020-05-10T15:12:04Z</time>
      </trkpt>
      <trkpt lat="48.68999" lon="7.25705">
        <ele>480.8</ele>
        <time>2020-05-10T15:12:05Z</time>
      </trkpt>
      <trkpt lat="48.69007" lon="7.25713">
        <ele>480.9</ele>
        <time>2020-05-10T15:12:07Z</time>
      </trkpt>
      <trkpt lat="48.69013" lon="7.25721">
        <ele>480.9</ele>
        <time>2020-05-10T15:12:09Z</time>
      </trkpt>
      <trkpt lat="48.69016" lon="7.25725">
        <ele>480.9</ele>
        <time>2020-05-10T15:12:10Z</time>
      </trkpt>
      <trkpt lat="48.69023" lon="7.25733">
        <ele>480.9</ele>
        <time>2020-05-10T15:12:12Z</time>
      </trkpt>
      <trkpt lat="48.69027" lon="7.25737">
        <ele>481</ele>
        <time>2020-05-10T15:12:13Z</time>
      </trkpt>
      <trkpt lat="48.69032" lon="7.25742">
        <ele>481</ele>
        <time>2020-05-10T15:12:14Z</time>
      </trkpt>
      <trkpt lat="48.69043" lon="7.25752">
        <ele>481.3</ele>
        <time>2020-05-10T15:12:16Z</time>
      </trkpt>
      <trkpt lat="48.69056" lon="7.25759">
        <ele>481.7</ele>
        <time>2020-05-10T15:12:18Z</time>
      </trkpt>
      <trkpt lat="48.6906" lon="7.25763">
        <ele>481.9</ele>
        <time>2020-05-10T15:12:19Z</time>
      </trkpt>
      <trkpt lat="48.69072" lon="7.25768">
        <ele>482.2</ele>
        <time>2020-05-10T15:12:21Z</time>
      </trkpt>
      <trkpt lat="48.69081" lon="7.25772">
        <ele>482.4</ele>
        <time>2020-05-10T15:12:23Z</time>
      </trkpt>
      <trkpt lat="48.69091" lon="7.25773">
        <ele>482.5</ele>
        <time>2020-05-10T15:12:25Z</time>
      </trkpt>
      <trkpt lat="48.69099" lon="7.25774">
        <ele>482.5</ele>
        <time>2020-05-10T15:12:26Z</time>
      </trkpt>
      <trkpt lat="48.69107" lon="7.25774">
        <ele>482.4</ele>
        <time>2020-05-10T15:12:27Z</time>
      </trkpt>
      <trkpt lat="48.69121" lon="7.25775">
        <ele>482.4</ele>
        <time>2020-05-10T15:12:29Z</time>
      </trkpt>
      <trkpt lat="48.69128" lon="7.25777">
        <ele>482.4</ele>
        <time>2020-05-10T15:12:30Z</time>
      </trkpt>
      <trkpt lat="48.69133" lon="7.25779">
        <ele>482.5</ele>
        <time>2020-05-10T15:12:31Z</time>
      </trkpt>
      <trkpt lat="48.69143" lon="7.25782">
        <ele>482.6</ele>
        <time>2020-05-10T15:12:33Z</time>
      </trkpt>
      <trkpt lat="48.69147" lon="7.25785">
        <ele>482.7</ele>
        <time>2020-05-10T15:12:34Z</time>
      </trkpt>
      <trkpt lat="48.6916" lon="7.25791">
        <ele>483</ele>
        <time>2020-05-10T15:12:36Z</time>
      </trkpt>
      <trkpt lat="48.69165" lon="7.25797">
        <ele>483.1</ele>
        <time>2020-05-10T15:12:37Z</time>
      </trkpt>
      <trkpt lat="48.69171" lon="7.25801">
        <ele>483.3</ele>
        <time>2020-05-10T15:12:38Z</time>
      </trkpt>
      <trkpt lat="48.69184" lon="7.25809">
        <ele>483.7</ele>
        <time>2020-05-10T15:12:40Z</time>
      </trkpt>
      <trkpt lat="48.69189" lon="7.25813">
        <ele>483.9</ele>
        <time>2020-05-10T15:12:41Z</time>
      </trkpt>
      <trkpt lat="48.69193" lon="7.25818">
        <ele>484</ele>
        <time>2020-05-10T15:12:42Z</time>
      </trkpt>
      <trkpt lat="48.69197" lon="7.25822">
        <ele>484.1</ele>
        <time>2020-05-10T15:12:43Z</time>
      </trkpt>
      <trkpt lat="48.69205" lon="7.25827">
        <ele>484.3</ele>
        <time>2020-05-10T15:12:45Z</time>
      </trkpt>
      <trkpt lat="48.69211" lon="7.25833">
        <ele>484.4</ele>
        <time>2020-05-10T15:12:46Z</time>
      </trkpt>
      <trkpt lat="48.69222" lon="7.25845">
        <ele>484.7</ele>
        <time>2020-05-10T15:12:48Z</time>
      </trkpt>
      <trkpt lat="48.69228" lon="7.2585">
        <ele>484.8</ele>
        <time>2020-05-10T15:12:49Z</time>
      </trkpt>
      <trkpt lat="48.69233" lon="7.25854">
        <ele>484.9</ele>
        <time>2020-05-10T15:12:50Z</time>
      </trkpt>
      <trkpt lat="48.69241" lon="7.25863">
        <ele>485.2</ele>
        <time>2020-05-10T15:12:52Z</time>
      </trkpt>
      <trkpt lat="48.69249" lon="7.25872">
        <ele>485.5</ele>
        <time>2020-05-10T15:12:54Z</time>
      </trkpt>
      <trkpt lat="48.69253" lon="7.25875">
        <ele>485.6</ele>
        <time>2020-05-10T15:12:55Z</time>
      </trkpt>
      <trkpt lat="48.69258" lon="7.25883">
        <ele>485.8</ele>
        <time>2020-05-10T15:12:57Z</time>
      </trkpt>
      <trkpt lat="48.69262" lon="7.2589">
        <ele>485.9</ele>
        <time>2020-05-10T15:12:58Z</time>
      </trkpt>
      <trkpt lat="48.69268" lon="7.25903">
        <ele>486.2</ele>
        <time>2020-05-10T15:13:00Z</time>
      </trkpt>
      <trkpt lat="48.6927" lon="7.25912">
        <ele>486.4</ele>
        <time>2020-05-10T15:13:01Z</time>
      </trkpt>
      <trkpt lat="48.69275" lon="7.25928">
        <ele>486.2</ele>
        <time>2020-05-10T15:13:03Z</time>
      </trkpt>
      <trkpt lat="48.69277" lon="7.25937">
        <ele>486</ele>
        <time>2020-05-10T15:13:04Z</time>
      </trkpt>
      <trkpt lat="48.69283" lon="7.25956">
        <ele>485</ele>
        <time>2020-05-10T15:13:06Z</time>
      </trkpt>
      <trkpt lat="48.69287" lon="7.25968">
        <ele>484.4</ele>
        <time>2020-05-10T15:13:07Z</time>
      </trkpt>
      <trkpt lat="48.69291" lon="7.2598">
        <ele>483.7</ele>
        <time>2020-05-10T15:13:08Z</time>
      </trkpt>
      <trkpt lat="48.69299" lon="7.26003">
        <ele>482.7</ele>
        <time>2020-05-10T15:13:10Z</time>
      </trkpt>
      <trkpt lat="48.69303" lon="7.26015">
        <ele>482.3</ele>
        <time>2020-05-10T15:13:11Z</time>
      </trkpt>
      <trkpt lat="48.69304" lon="7.26039">
        <ele>481.8</ele>
        <time>2020-05-10T15:13:13Z</time>
      </trkpt>
      <trkpt lat="48.69308" lon="7.26065">
        <ele>481.2</ele>
        <time>2020-05-10T15:13:15Z</time>
      </trkpt>
      <trkpt lat="48.6931" lon="7.26076">
        <ele>480.9</ele>
        <time>2020-05-10T15:13:16Z</time>
      </trkpt>
      <trkpt lat="48.69318" lon="7.26096">
        <ele>480.8</ele>
        <time>2020-05-10T15:13:18Z</time>
      </trkpt>
      <trkpt lat="48.69325" lon="7.26115">
        <ele>481.1</ele>
        <time>2020-05-10T15:13:20Z</time>
      </trkpt>
      <trkpt lat="48.69332" lon="7.26139">
        <ele>481.8</ele>
        <time>2020-05-10T15:13:22Z</time>
      </trkpt>
      <trkpt lat="48.69339" lon="7.26159">
        <ele>482.3</ele>
        <time>2020-05-10T15:13:24Z</time>
      </trkpt>
      <trkpt lat="48.6934" lon="7.26169">
        <ele>482.4</ele>
        <time>2020-05-10T15:13:25Z</time>
      </trkpt>
      <trkpt lat="48.69341" lon="7.26181">
        <ele>482.4</ele>
        <time>2020-05-10T15:13:26Z</time>
      </trkpt>
      <trkpt lat="48.69343" lon="7.26192">
        <ele>482.3</ele>
        <time>2020-05-10T15:13:27Z</time>
      </trkpt>
      <trkpt lat="48.69348" lon="7.26213">
        <ele>482</ele>
        <time>2020-05-10T15:13:29Z</time>
      </trkpt>
      <trkpt lat="48.69352" lon="7.26223">
        <ele>481.7</ele>
        <time>2020-05-10T15:13:30Z</time>
      </trkpt>
      <trkpt lat="48.6936" lon="7.26238">
        <ele>481</ele>
        <time>2020-05-10T15:13:32Z</time>
      </trkpt>
      <trkpt lat="48.69367" lon="7.26241">
        <ele>480.6</ele>
        <time>2020-05-10T15:13:33Z</time>
      </trkpt>
      <trkpt lat="48.6938" lon="7.26245">
        <ele>480.4</ele>
        <time>2020-05-10T15:13:35Z</time>
      </trkpt>
      <trkpt lat="48.69394" lon="7.2624">
        <ele>480.2</ele>
        <time>2020-05-10T15:13:37Z</time>
      </trkpt>
      <trkpt lat="48.69401" lon="7.26234">
        <ele>479.9</ele>
        <time>2020-05-10T15:13:38Z</time>
      </trkpt>
      <trkpt lat="48.69415" lon="7.26223">
        <ele>479.1</ele>
        <time>2020-05-10T15:13:40Z</time>
      </trkpt>
      <trkpt lat="48.69422" lon="7.26216">
        <ele>478.7</ele>
        <time>2020-05-10T15:13:41Z</time>
      </trkpt>
      <trkpt lat="48.69436" lon="7.26201">
        <ele>478.2</ele>
        <time>2020-05-10T15:13:43Z</time>
      </trkpt>
      <trkpt lat="48.69442" lon="7.26193">
        <ele>478</ele>
        <time>2020-05-10T15:13:44Z</time>
      </trkpt>
      <trkpt lat="48.6945" lon="7.26181">
        <ele>477.8</ele>
        <time>2020-05-10T15:13:46Z</time>
      </trkpt>
      <trkpt lat="48.69461" lon="7.26165">
        <ele>477.4</ele>
        <time>2020-05-10T15:13:48Z</time>
      </trkpt>
      <trkpt lat="48.69473" lon="7.26146">
        <ele>476.6</ele>
        <time>2020-05-10T15:13:50Z</time>
      </trkpt>
      <trkpt lat="48.69484" lon="7.26137">
        <ele>476.1</ele>
        <time>2020-05-10T15:13:52Z</time>
      </trkpt>
      <trkpt lat="48.69489" lon="7.26136">
        <ele>475.9</ele>
        <time>2020-05-10T15:13:53Z</time>
      </trkpt>
      <trkpt lat="48.69496" lon="7.26134">
        <ele>475.5</ele>
        <time>2020-05-10T15:13:54Z</time>
      </trkpt>
      <trkpt lat="48.69512" lon="7.26125">
        <ele>474.9</ele>
        <time>2020-05-10T15:13:56Z</time>
      </trkpt>
      <trkpt lat="48.6952" lon="7.2612">
        <ele>474.6</ele>
        <time>2020-05-10T15:13:57Z</time>
      </trkpt>
      <trkpt lat="48.6953" lon="7.26111">
        <ele>474.2</ele>
        <time>2020-05-10T15:13:59Z</time>
      </trkpt>
      <trkpt lat="48.69545" lon="7.26106">
        <ele>473.9</ele>
        <time>2020-05-10T15:14:00Z</time>
      </trkpt>
      <trkpt lat="48.69553" lon="7.26104">
        <ele>473.8</ele>
        <time>2020-05-10T15:14:01Z</time>
      </trkpt>
      <trkpt lat="48.69561" lon="7.26103">
        <ele>473.3</ele>
        <time>2020-05-10T15:14:02Z</time>
      </trkpt>
      <trkpt lat="48.69571" lon="7.26103">
        <ele>472.6</ele>
        <time>2020-05-10T15:14:03Z</time>
      </trkpt>
      <trkpt lat="48.69589" lon="7.26112">
        <ele>470.7</ele>
        <time>2020-05-10T15:14:05Z</time>
      </trkpt>
      <trkpt lat="48.69603" lon="7.26126">
        <ele>469.6</ele>
        <time>2020-05-10T15:14:07Z</time>
      </trkpt>
      <trkpt lat="48.6961" lon="7.26133">
        <ele>469.2</ele>
        <time>2020-05-10T15:14:08Z</time>
      </trkpt>
      <trkpt lat="48.69622" lon="7.2615">
        <ele>468.4</ele>
        <time>2020-05-10T15:14:10Z</time>
      </trkpt>
      <trkpt lat="48.6963" lon="7.26161">
        <ele>467.9</ele>
        <time>2020-05-10T15:14:11Z</time>
      </trkpt>
      <trkpt lat="48.69644" lon="7.26182">
        <ele>467.3</ele>
        <time>2020-05-10T15:14:13Z</time>
      </trkpt>
      <trkpt lat="48.69655" lon="7.262">
        <ele>466.9</ele>
        <time>2020-05-10T15:14:15Z</time>
      </trkpt>
      <trkpt lat="48.69659" lon="7.26209">
        <ele>466.6</ele>
        <time>2020-05-10T15:14:16Z</time>
      </trkpt>
      <trkpt lat="48.69664" lon="7.2622">
        <ele>466.2</ele>
        <time>2020-05-10T15:14:17Z</time>
      </trkpt>
      <trkpt lat="48.69672" lon="7.26232">
        <ele>466</ele>
        <time>2020-05-10T15:14:18Z</time>
      </trkpt>
      <trkpt lat="48.69681" lon="7.26248">
        <ele>465.9</ele>
        <time>2020-05-10T15:14:20Z</time>
      </trkpt>
      <trkpt lat="48.69685" lon="7.26256">
        <ele>465.9</ele>
        <time>2020-05-10T15:14:21Z</time>
      </trkpt>
      <trkpt lat="48.69689" lon="7.26265">
        <ele>466</ele>
        <time>2020-05-10T15:14:22Z</time>
      </trkpt>
      <trkpt lat="48.69693" lon="7.26275">
        <ele>466</ele>
        <time>2020-05-10T15:14:23Z</time>
      </trkpt>
      <trkpt lat="48.69703" lon="7.26293">
        <ele>466.3</ele>
        <time>2020-05-10T15:14:25Z</time>
      </trkpt>
      <trkpt lat="48.6971" lon="7.26309">
        <ele>466.5</ele>
        <time>2020-05-10T15:14:27Z</time>
      </trkpt>
      <trkpt lat="48.69713" lon="7.26318">
        <ele>466.6</ele>
        <time>2020-05-10T15:14:28Z</time>
      </trkpt>
      <trkpt lat="48.69716" lon="7.26326">
        <ele>466.7</ele>
        <time>2020-05-10T15:14:29Z</time>
      </trkpt>
      <trkpt lat="48.69721" lon="7.26345">
        <ele>466.9</ele>
        <time>2020-05-10T15:14:31Z</time>
      </trkpt>
      <trkpt lat="48.69728" lon="7.26361">
        <ele>467</ele>
        <time>2020-05-10T15:14:33Z</time>
      </trkpt>
      <trkpt lat="48.69731" lon="7.26371">
        <ele>467</ele>
        <time>2020-05-10T15:14:34Z</time>
      </trkpt>
      <trkpt lat="48.69733" lon="7.26395">
        <ele>466.7</ele>
        <time>2020-05-10T15:14:36Z</time>
      </trkpt>
      <trkpt lat="48.69735" lon="7.26417">
        <ele>465.9</ele>
        <time>2020-05-10T15:14:38Z</time>
      </trkpt>
      <trkpt lat="48.69735" lon="7.26432">
        <ele>465.4</ele>
        <time>2020-05-10T15:14:40Z</time>
      </trkpt>
      <trkpt lat="48.69736" lon="7.26441">
        <ele>465.1</ele>
        <time>2020-05-10T15:14:41Z</time>
      </trkpt>
      <trkpt lat="48.6974" lon="7.26462">
        <ele>464.5</ele>
        <time>2020-05-10T15:14:43Z</time>
      </trkpt>
      <trkpt lat="48.69742" lon="7.26482">
        <ele>464</ele>
        <time>2020-05-10T15:14:45Z</time>
      </trkpt>
      <trkpt lat="48.69743" lon="7.26491">
        <ele>463.8</ele>
        <time>2020-05-10T15:14:46Z</time>
      </trkpt>
      <trkpt lat="48.69745" lon="7.265">
        <ele>463.7</ele>
        <time>2020-05-10T15:14:47Z</time>
      </trkpt>
      <trkpt lat="48.69745" lon="7.26516">
        <ele>463.7</ele>
        <time>2020-05-10T15:14:49Z</time>
      </trkpt>
      <trkpt lat="48.69746" lon="7.26534">
        <ele>463.9</ele>
        <time>2020-05-10T15:14:51Z</time>
      </trkpt>
      <trkpt lat="48.69749" lon="7.26551">
        <ele>464.1</ele>
        <time>2020-05-10T15:14:53Z</time>
      </trkpt>
      <trkpt lat="48.69747" lon="7.26561">
        <ele>464.2</ele>
        <time>2020-05-10T15:14:54Z</time>
      </trkpt>
      <trkpt lat="48.69746" lon="7.26571">
        <ele>464.2</ele>
        <time>2020-05-10T15:14:55Z</time>
      </trkpt>
      <trkpt lat="48.69746" lon="7.26582">
        <ele>464.2</ele>
        <time>2020-05-10T15:14:56Z</time>
      </trkpt>
      <trkpt lat="48.69746" lon="7.26598">
        <ele>464.1</ele>
        <time>2020-05-10T15:14:58Z</time>
      </trkpt>
      <trkpt lat="48.6975" lon="7.26617">
        <ele>464</ele>
        <time>2020-05-10T15:15:00Z</time>
      </trkpt>
      <trkpt lat="48.69753" lon="7.26625">
        <ele>463.9</ele>
        <time>2020-05-10T15:15:01Z</time>
      </trkpt>
      <trkpt lat="48.69759" lon="7.26638">
        <ele>463.7</ele>
        <time>2020-05-10T15:15:03Z</time>
      </trkpt>
      <trkpt lat="48.69766" lon="7.26651">
        <ele>463.5</ele>
        <time>2020-05-10T15:15:05Z</time>
      </trkpt>
      <trkpt lat="48.6977" lon="7.26656">
        <ele>463.4</ele>
        <time>2020-05-10T15:15:06Z</time>
      </trkpt>
      <trkpt lat="48.69773" lon="7.2666">
        <ele>463.4</ele>
        <time>2020-05-10T15:15:07Z</time>
      </trkpt>
      <trkpt lat="48.69783" lon="7.26662">
        <ele>463.4</ele>
        <time>2020-05-10T15:15:09Z</time>
      </trkpt>
      <trkpt lat="48.69793" lon="7.26662">
        <ele>463.3</ele>
        <time>2020-05-10T15:15:11Z</time>
      </trkpt>
      <trkpt lat="48.69804" lon="7.26658">
        <ele>463.3</ele>
        <time>2020-05-10T15:15:13Z</time>
      </trkpt>
      <trkpt lat="48.6981" lon="7.26655">
        <ele>463.2</ele>
        <time>2020-05-10T15:15:14Z</time>
      </trkpt>
      <trkpt lat="48.69815" lon="7.26652">
        <ele>463.1</ele>
        <time>2020-05-10T15:15:15Z</time>
      </trkpt>
      <trkpt lat="48.69824" lon="7.26647">
        <ele>462.8</ele>
        <time>2020-05-10T15:15:17Z</time>
      </trkpt>
      <trkpt lat="48.69829" lon="7.26647">
        <ele>462.6</ele>
        <time>2020-05-10T15:15:18Z</time>
      </trkpt>
      <trkpt lat="48.69837" lon="7.26637">
        <ele>462</ele>
        <time>2020-05-10T15:15:20Z</time>
      </trkpt>
      <trkpt lat="48.69842" lon="7.26631">
        <ele>461.6</ele>
        <time>2020-05-10T15:15:21Z</time>
      </trkpt>
      <trkpt lat="48.69853" lon="7.26619">
        <ele>460.4</ele>
        <time>2020-05-10T15:15:23Z</time>
      </trkpt>
      <trkpt lat="48.69861" lon="7.26602">
        <ele>459.3</ele>
        <time>2020-05-10T15:15:25Z</time>
      </trkpt>
      <trkpt lat="48.69869" lon="7.26588">
        <ele>458.7</ele>
        <time>2020-05-10T15:15:27Z</time>
      </trkpt>
      <trkpt lat="48.69874" lon="7.26581">
        <ele>458.4</ele>
        <time>2020-05-10T15:15:28Z</time>
      </trkpt>
      <trkpt lat="48.69883" lon="7.26569">
        <ele>458.2</ele>
        <time>2020-05-10T15:15:30Z</time>
      </trkpt>
      <trkpt lat="48.69894" lon="7.2656">
        <ele>457.9</ele>
        <time>2020-05-10T15:15:32Z</time>
      </trkpt>
      <trkpt lat="48.699" lon="7.26557">
        <ele>457.7</ele>
        <time>2020-05-10T15:15:33Z</time>
      </trkpt>
      <trkpt lat="48.6991" lon="7.26554">
        <ele>457.4</ele>
        <time>2020-05-10T15:15:35Z</time>
      </trkpt>
      <trkpt lat="48.69921" lon="7.26552">
        <ele>457.2</ele>
        <time>2020-05-10T15:15:37Z</time>
      </trkpt>
      <trkpt lat="48.69931" lon="7.26554">
        <ele>457.4</ele>
        <time>2020-05-10T15:15:39Z</time>
      </trkpt>
      <trkpt lat="48.69938" lon="7.26555">
        <ele>457.6</ele>
        <time>2020-05-10T15:15:40Z</time>
      </trkpt>
      <trkpt lat="48.69944" lon="7.26559">
        <ele>457.9</ele>
        <time>2020-05-10T15:15:42Z</time>
      </trkpt>
      <trkpt lat="48.6995" lon="7.26561">
        <ele>458.2</ele>
        <time>2020-05-10T15:15:43Z</time>
      </trkpt>
      <trkpt lat="48.69962" lon="7.26563">
        <ele>458.5</ele>
        <time>2020-05-10T15:15:45Z</time>
      </trkpt>
      <trkpt lat="48.69972" lon="7.26565">
        <ele>458.5</ele>
        <time>2020-05-10T15:15:47Z</time>
      </trkpt>
      <trkpt lat="48.69984" lon="7.26568">
        <ele>458.4</ele>
        <time>2020-05-10T15:15:49Z</time>
      </trkpt>
      <trkpt lat="48.69997" lon="7.26566">
        <ele>458.2</ele>
        <time>2020-05-10T15:15:51Z</time>
      </trkpt>
      <trkpt lat="48.70004" lon="7.26565">
        <ele>458.1</ele>
        <time>2020-05-10T15:15:52Z</time>
      </trkpt>
      <trkpt lat="48.70015" lon="7.26566">
        <ele>458</ele>
        <time>2020-05-10T15:15:54Z</time>
      </trkpt>
      <trkpt lat="48.7002" lon="7.26567">
        <ele>457.9</ele>
        <time>2020-05-10T15:15:55Z</time>
      </trkpt>
      <trkpt lat="48.70025" lon="7.26567">
        <ele>457.9</ele>
        <time>2020-05-10T15:15:56Z</time>
      </trkpt>
      <trkpt lat="48.70035" lon="7.26569">
        <ele>458</ele>
        <time>2020-05-10T15:15:58Z</time>
      </trkpt>
      <trkpt lat="48.70045" lon="7.26572">
        <ele>458.2</ele>
        <time>2020-05-10T15:16:00Z</time>
      </trkpt>
      <trkpt lat="48.70049" lon="7.26573">
        <ele>458.4</ele>
        <time>2020-05-10T15:16:01Z</time>
      </trkpt>
      <trkpt lat="48.70055" lon="7.26574">
        <ele>458.6</ele>
        <time>2020-05-10T15:16:02Z</time>
      </trkpt>
      <trkpt lat="48.7006" lon="7.26578">
        <ele>458.9</ele>
        <time>2020-05-10T15:16:04Z</time>
      </trkpt>
      <trkpt lat="48.70063" lon="7.2658">
        <ele>459</ele>
        <time>2020-05-10T15:16:05Z</time>
      </trkpt>
      <trkpt lat="48.70068" lon="7.26583">
        <ele>459.2</ele>
        <time>2020-05-10T15:16:07Z</time>
      </trkpt>
      <trkpt lat="48.70071" lon="7.26584">
        <ele>459.4</ele>
        <time>2020-05-10T15:16:08Z</time>
      </trkpt>
      <trkpt lat="48.70072" lon="7.26584">
        <ele>459.4</ele>
        <time>2020-05-10T15:16:10Z</time>
      </trkpt>
      <trkpt lat="48.70073" lon="7.26585">
        <ele>459.5</ele>
        <time>2020-05-10T15:16:11Z</time>
      </trkpt>
      <trkpt lat="48.70075" lon="7.26585">
        <ele>459.6</ele>
        <time>2020-05-10T15:16:12Z</time>
      </trkpt>
      <trkpt lat="48.70079" lon="7.26588">
        <ele>459.8</ele>
        <time>2020-05-10T15:16:14Z</time>
      </trkpt>
      <trkpt lat="48.70082" lon="7.2659">
        <ele>460</ele>
        <time>2020-05-10T15:16:15Z</time>
      </trkpt>
      <trkpt lat="48.70083" lon="7.26591">
        <ele>460.1</ele>
        <time>2020-05-10T15:16:16Z</time>
      </trkpt>
      <trkpt lat="48.70086" lon="7.26593">
        <ele>460.3</ele>
        <time>2020-05-10T15:16:18Z</time>
      </trkpt>
      <trkpt lat="48.70089" lon="7.26598">
        <ele>460.6</ele>
        <time>2020-05-10T15:16:20Z</time>
      </trkpt>
      <trkpt lat="48.70091" lon="7.26601">
        <ele>460.8</ele>
        <time>2020-05-10T15:16:21Z</time>
      </trkpt>
      <trkpt lat="48.70093" lon="7.26603">
        <ele>460.9</ele>
        <time>2020-05-10T15:16:22Z</time>
      </trkpt>
      <trkpt lat="48.70096" lon="7.26603">
        <ele>461.2</ele>
        <time>2020-05-10T15:16:24Z</time>
      </trkpt>
      <trkpt lat="48.701" lon="7.26604">
        <ele>461.5</ele>
        <time>2020-05-10T15:16:26Z</time>
      </trkpt>
      <trkpt lat="48.70104" lon="7.26605">
        <ele>461.8</ele>
        <time>2020-05-10T15:16:27Z</time>
      </trkpt>
      <trkpt lat="48.70105" lon="7.26606">
        <ele>461.8</ele>
        <time>2020-05-10T15:16:28Z</time>
      </trkpt>
      <trkpt lat="48.70108" lon="7.26607">
        <ele>462</ele>
        <time>2020-05-10T15:16:29Z</time>
      </trkpt>
      <trkpt lat="48.70113" lon="7.26612">
        <ele>462.4</ele>
        <time>2020-05-10T15:16:31Z</time>
      </trkpt>
      <trkpt lat="48.70119" lon="7.26616">
        <ele>462.9</ele>
        <time>2020-05-10T15:16:33Z</time>
      </trkpt>
      <trkpt lat="48.70123" lon="7.26617">
        <ele>463.2</ele>
        <time>2020-05-10T15:16:35Z</time>
      </trkpt>
      <trkpt lat="48.70129" lon="7.26619">
        <ele>463.6</ele>
        <time>2020-05-10T15:16:37Z</time>
      </trkpt>
      <trkpt lat="48.70135" lon="7.26623">
        <ele>464</ele>
        <time>2020-05-10T15:16:39Z</time>
      </trkpt>
      <trkpt lat="48.70137" lon="7.26624">
        <ele>464.1</ele>
        <time>2020-05-10T15:16:40Z</time>
      </trkpt>
      <trkpt lat="48.7014" lon="7.26626">
        <ele>464.3</ele>
        <time>2020-05-10T15:16:41Z</time>
      </trkpt>
      <trkpt lat="48.70145" lon="7.26628">
        <ele>464.5</ele>
        <time>2020-05-10T15:16:42Z</time>
      </trkpt>
      <trkpt lat="48.70151" lon="7.26632">
        <ele>464.7</ele>
        <time>2020-05-10T15:16:44Z</time>
      </trkpt>
      <trkpt lat="48.70156" lon="7.26637">
        <ele>464.8</ele>
        <time>2020-05-10T15:16:46Z</time>
      </trkpt>
      <trkpt lat="48.70159" lon="7.26641">
        <ele>464.8</ele>
        <time>2020-05-10T15:16:48Z</time>
      </trkpt>
      <trkpt lat="48.70162" lon="7.26644">
        <ele>464.7</ele>
        <time>2020-05-10T15:16:49Z</time>
      </trkpt>
      <trkpt lat="48.70166" lon="7.2665">
        <ele>464.8</ele>
        <time>2020-05-10T15:16:51Z</time>
      </trkpt>
      <trkpt lat="48.70168" lon="7.26653">
        <ele>464.8</ele>
        <time>2020-05-10T15:16:52Z</time>
      </trkpt>
      <trkpt lat="48.70173" lon="7.26661">
        <ele>464.9</ele>
        <time>2020-05-10T15:16:54Z</time>
      </trkpt>
      <trkpt lat="48.70175" lon="7.26665">
        <ele>465</ele>
        <time>2020-05-10T15:16:55Z</time>
      </trkpt>
      <trkpt lat="48.70177" lon="7.2667">
        <ele>465.1</ele>
        <time>2020-05-10T15:16:56Z</time>
      </trkpt>
      <trkpt lat="48.70183" lon="7.26677">
        <ele>465.4</ele>
        <time>2020-05-10T15:16:58Z</time>
      </trkpt>
      <trkpt lat="48.70185" lon="7.26681">
        <ele>465.5</ele>
        <time>2020-05-10T15:16:59Z</time>
      </trkpt>
      <trkpt lat="48.7019" lon="7.26689">
        <ele>465.8</ele>
        <time>2020-05-10T15:17:01Z</time>
      </trkpt>
      <trkpt lat="48.70194" lon="7.26697">
        <ele>466</ele>
        <time>2020-05-10T15:17:03Z</time>
      </trkpt>
      <trkpt lat="48.70196" lon="7.267">
        <ele>466.1</ele>
        <time>2020-05-10T15:17:04Z</time>
      </trkpt>
      <trkpt lat="48.70201" lon="7.26706">
        <ele>466.2</ele>
        <time>2020-05-10T15:17:06Z</time>
      </trkpt>
      <trkpt lat="48.70204" lon="7.26711">
        <ele>466.3</ele>
        <time>2020-05-10T15:17:08Z</time>
      </trkpt>
      <trkpt lat="48.70207" lon="7.26717">
        <ele>466.4</ele>
        <time>2020-05-10T15:17:10Z</time>
      </trkpt>
      <trkpt lat="48.70208" lon="7.26719">
        <ele>466.4</ele>
        <time>2020-05-10T15:17:11Z</time>
      </trkpt>
      <trkpt lat="48.70208" lon="7.2672">
        <ele>466.5</ele>
        <time>2020-05-10T15:17:12Z</time>
      </trkpt>
      <trkpt lat="48.70211" lon="7.26727">
        <ele>466.6</ele>
        <time>2020-05-10T15:17:14Z</time>
      </trkpt>
      <trkpt lat="48.70212" lon="7.26732">
        <ele>466.7</ele>
        <time>2020-05-10T15:17:15Z</time>
      </trkpt>
      <trkpt lat="48.70214" lon="7.26738">
        <ele>466.8</ele>
        <time>2020-05-10T15:17:17Z</time>
      </trkpt>
      <trkpt lat="48.70215" lon="7.26741">
        <ele>466.9</ele>
        <time>2020-05-10T15:17:18Z</time>
      </trkpt>
      <trkpt lat="48.70216" lon="7.26742">
        <ele>466.9</ele>
        <time>2020-05-10T15:17:19Z</time>
      </trkpt>
      <trkpt lat="48.70219" lon="7.26749">
        <ele>467.1</ele>
        <time>2020-05-10T15:17:21Z</time>
      </trkpt>
      <trkpt lat="48.70223" lon="7.26755">
        <ele>467.2</ele>
        <time>2020-05-10T15:17:23Z</time>
      </trkpt>
      <trkpt lat="48.70224" lon="7.26758">
        <ele>467.3</ele>
        <time>2020-05-10T15:17:24Z</time>
      </trkpt>
      <trkpt lat="48.70227" lon="7.26764">
        <ele>467.4</ele>
        <time>2020-05-10T15:17:26Z</time>
      </trkpt>
      <trkpt lat="48.7023" lon="7.26771">
        <ele>467.4</ele>
        <time>2020-05-10T15:17:28Z</time>
      </trkpt>
      <trkpt lat="48.70233" lon="7.26779">
        <ele>467.5</ele>
        <time>2020-05-10T15:17:30Z</time>
      </trkpt>
      <trkpt lat="48.70235" lon="7.26782">
        <ele>467.5</ele>
        <time>2020-05-10T15:17:31Z</time>
      </trkpt>
      <trkpt lat="48.70238" lon="7.26789">
        <ele>467.4</ele>
        <time>2020-05-10T15:17:33Z</time>
      </trkpt>
      <trkpt lat="48.7024" lon="7.26793">
        <ele>467.4</ele>
        <time>2020-05-10T15:17:34Z</time>
      </trkpt>
      <trkpt lat="48.70243" lon="7.26801">
        <ele>467.4</ele>
        <time>2020-05-10T15:17:36Z</time>
      </trkpt>
      <trkpt lat="48.70245" lon="7.26806">
        <ele>467.4</ele>
        <time>2020-05-10T15:17:37Z</time>
      </trkpt>
      <trkpt lat="48.70249" lon="7.26815">
        <ele>467.3</ele>
        <time>2020-05-10T15:17:39Z</time>
      </trkpt>
      <trkpt lat="48.70252" lon="7.2682">
        <ele>467.3</ele>
        <time>2020-05-10T15:17:40Z</time>
      </trkpt>
      <trkpt lat="48.70255" lon="7.26829">
        <ele>467.2</ele>
        <time>2020-05-10T15:17:42Z</time>
      </trkpt>
      <trkpt lat="48.70259" lon="7.26836">
        <ele>467.2</ele>
        <time>2020-05-10T15:17:44Z</time>
      </trkpt>
      <trkpt lat="48.7026" lon="7.26839">
        <ele>467.2</ele>
        <time>2020-05-10T15:17:45Z</time>
      </trkpt>
      <trkpt lat="48.70261" lon="7.26844">
        <ele>467.2</ele>
        <time>2020-05-10T15:17:46Z</time>
      </trkpt>
      <trkpt lat="48.70265" lon="7.26851">
        <ele>467.1</ele>
        <time>2020-05-10T15:17:48Z</time>
      </trkpt>
      <trkpt lat="48.7027" lon="7.26857">
        <ele>467.1</ele>
        <time>2020-05-10T15:17:50Z</time>
      </trkpt>
      <trkpt lat="48.70273" lon="7.26862">
        <ele>467</ele>
        <time>2020-05-10T15:17:52Z</time>
      </trkpt>
      <trkpt lat="48.70274" lon="7.26869">
        <ele>467</ele>
        <time>2020-05-10T15:17:54Z</time>
      </trkpt>
      <trkpt lat="48.70277" lon="7.26879">
        <ele>466.8</ele>
        <time>2020-05-10T15:17:56Z</time>
      </trkpt>
      <trkpt lat="48.70279" lon="7.26884">
        <ele>466.8</ele>
        <time>2020-05-10T15:17:57Z</time>
      </trkpt>
      <trkpt lat="48.70285" lon="7.26894">
        <ele>466.5</ele>
        <time>2020-05-10T15:17:59Z</time>
      </trkpt>
      <trkpt lat="48.70287" lon="7.26899">
        <ele>466.4</ele>
        <time>2020-05-10T15:18:00Z</time>
      </trkpt>
      <trkpt lat="48.70289" lon="7.26911">
        <ele>466.1</ele>
        <time>2020-05-10T15:18:02Z</time>
      </trkpt>
      <trkpt lat="48.7029" lon="7.26918">
        <ele>465.9</ele>
        <time>2020-05-10T15:18:03Z</time>
      </trkpt>
      <trkpt lat="48.70296" lon="7.26929">
        <ele>465.5</ele>
        <time>2020-05-10T15:18:05Z</time>
      </trkpt>
      <trkpt lat="48.70308" lon="7.26944">
        <ele>464.9</ele>
        <time>2020-05-10T15:18:07Z</time>
      </trkpt>
      <trkpt lat="48.70311" lon="7.26949">
        <ele>464.7</ele>
        <time>2020-05-10T15:18:08Z</time>
      </trkpt>
      <trkpt lat="48.70316" lon="7.26954">
        <ele>464.5</ele>
        <time>2020-05-10T15:18:09Z</time>
      </trkpt>
      <trkpt lat="48.70328" lon="7.26965">
        <ele>463.8</ele>
        <time>2020-05-10T15:18:11Z</time>
      </trkpt>
      <trkpt lat="48.70338" lon="7.2697">
        <ele>463.2</ele>
        <time>2020-05-10T15:18:13Z</time>
      </trkpt>
      <trkpt lat="48.70346" lon="7.26968">
        <ele>462.7</ele>
        <time>2020-05-10T15:18:15Z</time>
      </trkpt>
      <trkpt lat="48.7035" lon="7.26964">
        <ele>462.3</ele>
        <time>2020-05-10T15:18:16Z</time>
      </trkpt>
      <trkpt lat="48.70362" lon="7.26954">
        <ele>461.7</ele>
        <time>2020-05-10T15:18:18Z</time>
      </trkpt>
      <trkpt lat="48.70368" lon="7.26949">
        <ele>461.4</ele>
        <time>2020-05-10T15:18:19Z</time>
      </trkpt>
      <trkpt lat="48.70378" lon="7.2694">
        <ele>460.9</ele>
        <time>2020-05-10T15:18:21Z</time>
      </trkpt>
      <trkpt lat="48.70382" lon="7.26938">
        <ele>460.7</ele>
        <time>2020-05-10T15:18:23Z</time>
      </trkpt>
      <trkpt lat="48.70381" lon="7.26936">
        <ele>460.6</ele>
        <time>2020-05-10T15:18:25Z</time>
      </trkpt>
      <trkpt lat="48.70381" lon="7.26935">
        <ele>460.5</ele>
        <time>2020-05-10T15:18:26Z</time>
      </trkpt>
      <trkpt lat="48.70379" lon="7.26934">
        <ele>460.4</ele>
        <time>2020-05-10T15:18:28Z</time>
      </trkpt>
      <trkpt lat="48.7038" lon="7.26933">
        <ele>460.4</ele>
        <time>2020-05-10T15:18:30Z</time>
      </trkpt>
      <trkpt lat="48.7038" lon="7.26932">
        <ele>460.4</ele>
        <time>2020-05-10T15:18:32Z</time>
      </trkpt>
      <trkpt lat="48.70381" lon="7.26932">
        <ele>460.3</ele>
        <time>2020-05-10T15:18:34Z</time>
      </trkpt>
      <trkpt lat="48.70382" lon="7.26931">
        <ele>460.3</ele>
        <time>2020-05-10T15:18:36Z</time>
      </trkpt>
      <trkpt lat="48.70382" lon="7.2693">
        <ele>460.2</ele>
        <time>2020-05-10T15:18:37Z</time>
      </trkpt>
      <trkpt lat="48.70385" lon="7.26927">
        <ele>460</ele>
        <time>2020-05-10T15:18:38Z</time>
      </trkpt>
      <trkpt lat="48.70386" lon="7.26922">
        <ele>459.8</ele>
        <time>2020-05-10T15:18:40Z</time>
      </trkpt>
      <trkpt lat="48.70388" lon="7.26919">
        <ele>459.6</ele>
        <time>2020-05-10T15:18:41Z</time>
      </trkpt>
      <trkpt lat="48.70396" lon="7.26912">
        <ele>458.9</ele>
        <time>2020-05-10T15:18:43Z</time>
      </trkpt>
      <trkpt lat="48.704" lon="7.2691">
        <ele>458.6</ele>
        <time>2020-05-10T15:18:44Z</time>
      </trkpt>
      <trkpt lat="48.70416" lon="7.26911">
        <ele>457.7</ele>
        <time>2020-05-10T15:18:46Z</time>
      </trkpt>
      <trkpt lat="48.70423" lon="7.26906">
        <ele>457.4</ele>
        <time>2020-05-10T15:18:47Z</time>
      </trkpt>
      <trkpt lat="48.7043" lon="7.269">
        <ele>457.1</ele>
        <time>2020-05-10T15:18:48Z</time>
      </trkpt>
      <trkpt lat="48.70438" lon="7.26893">
        <ele>456.8</ele>
        <time>2020-05-10T15:18:49Z</time>
      </trkpt>
      <trkpt lat="48.70448" lon="7.26884">
        <ele>456.3</ele>
        <time>2020-05-10T15:18:51Z</time>
      </trkpt>
      <trkpt lat="48.70462" lon="7.26878">
        <ele>455.7</ele>
        <time>2020-05-10T15:18:53Z</time>
      </trkpt>
      <trkpt lat="48.7048" lon="7.26874">
        <ele>455.1</ele>
        <time>2020-05-10T15:18:55Z</time>
      </trkpt>
      <trkpt lat="48.70488" lon="7.26874">
        <ele>454.9</ele>
        <time>2020-05-10T15:18:56Z</time>
      </trkpt>
      <trkpt lat="48.70503" lon="7.26873">
        <ele>454.8</ele>
        <time>2020-05-10T15:18:58Z</time>
      </trkpt>
      <trkpt lat="48.70515" lon="7.26883">
        <ele>454.5</ele>
        <time>2020-05-10T15:19:00Z</time>
      </trkpt>
      <trkpt lat="48.7052" lon="7.26889">
        <ele>454.4</ele>
        <time>2020-05-10T15:19:01Z</time>
      </trkpt>
      <trkpt lat="48.70528" lon="7.26898">
        <ele>454</ele>
        <time>2020-05-10T15:19:03Z</time>
      </trkpt>
      <trkpt lat="48.7054" lon="7.26909">
        <ele>453.6</ele>
        <time>2020-05-10T15:19:05Z</time>
      </trkpt>
      <trkpt lat="48.7055" lon="7.26923">
        <ele>453.2</ele>
        <time>2020-05-10T15:19:07Z</time>
      </trkpt>
      <trkpt lat="48.70562" lon="7.26935">
        <ele>452.9</ele>
        <time>2020-05-10T15:19:09Z</time>
      </trkpt>
      <trkpt lat="48.70567" lon="7.26943">
        <ele>452.8</ele>
        <time>2020-05-10T15:19:11Z</time>
      </trkpt>
      <trkpt lat="48.70575" lon="7.26954">
        <ele>452.5</ele>
        <time>2020-05-10T15:19:13Z</time>
      </trkpt>
      <trkpt lat="48.70589" lon="7.26968">
        <ele>452.3</ele>
        <time>2020-05-10T15:19:15Z</time>
      </trkpt>
      <trkpt lat="48.70595" lon="7.26975">
        <ele>452.2</ele>
        <time>2020-05-10T15:19:16Z</time>
      </trkpt>
      <trkpt lat="48.70599" lon="7.26982">
        <ele>452.1</ele>
        <time>2020-05-10T15:19:17Z</time>
      </trkpt>
      <trkpt lat="48.70607" lon="7.26996">
        <ele>452.2</ele>
        <time>2020-05-10T15:19:19Z</time>
      </trkpt>
      <trkpt lat="48.70615" lon="7.27008">
        <ele>452.3</ele>
        <time>2020-05-10T15:19:21Z</time>
      </trkpt>
      <trkpt lat="48.70623" lon="7.2702">
        <ele>452.4</ele>
        <time>2020-05-10T15:19:23Z</time>
      </trkpt>
      <trkpt lat="48.70627" lon="7.27025">
        <ele>452.5</ele>
        <time>2020-05-10T15:19:24Z</time>
      </trkpt>
      <trkpt lat="48.70637" lon="7.2703">
        <ele>452.6</ele>
        <time>2020-05-10T15:19:26Z</time>
      </trkpt>
      <trkpt lat="48.70647" lon="7.27036">
        <ele>452.6</ele>
        <time>2020-05-10T15:19:28Z</time>
      </trkpt>
      <trkpt lat="48.70654" lon="7.27037">
        <ele>452.7</ele>
        <time>2020-05-10T15:19:29Z</time>
      </trkpt>
      <trkpt lat="48.70667" lon="7.27044">
        <ele>452.6</ele>
        <time>2020-05-10T15:19:31Z</time>
      </trkpt>
      <trkpt lat="48.70679" lon="7.27054">
        <ele>452.5</ele>
        <time>2020-05-10T15:19:33Z</time>
      </trkpt>
      <trkpt lat="48.70689" lon="7.27064">
        <ele>452.5</ele>
        <time>2020-05-10T15:19:35Z</time>
      </trkpt>
      <trkpt lat="48.70694" lon="7.2707">
        <ele>452.5</ele>
        <time>2020-05-10T15:19:36Z</time>
      </trkpt>
      <trkpt lat="48.707" lon="7.27075">
        <ele>452.5</ele>
        <time>2020-05-10T15:19:37Z</time>
      </trkpt>
      <trkpt lat="48.70711" lon="7.27085">
        <ele>452.7</ele>
        <time>2020-05-10T15:19:39Z</time>
      </trkpt>
      <trkpt lat="48.70721" lon="7.27093">
        <ele>452.9</ele>
        <time>2020-05-10T15:19:41Z</time>
      </trkpt>
      <trkpt lat="48.70733" lon="7.27092">
        <ele>453.2</ele>
        <time>2020-05-10T15:19:43Z</time>
      </trkpt>
      <trkpt lat="48.70743" lon="7.27088">
        <ele>453.6</ele>
        <time>2020-05-10T15:19:45Z</time>
      </trkpt>
      <trkpt lat="48.70746" lon="7.27083">
        <ele>453.7</ele>
        <time>2020-05-10T15:19:46Z</time>
      </trkpt>
      <trkpt lat="48.70753" lon="7.27078">
        <ele>453.9</ele>
        <time>2020-05-10T15:19:48Z</time>
      </trkpt>
      <trkpt lat="48.70756" lon="7.27076">
        <ele>454</ele>
        <time>2020-05-10T15:19:49Z</time>
      </trkpt>
      <trkpt lat="48.70759" lon="7.27072">
        <ele>454.1</ele>
        <time>2020-05-10T15:19:50Z</time>
      </trkpt>
      <trkpt lat="48.70761" lon="7.27071">
        <ele>454.2</ele>
        <time>2020-05-10T15:19:51Z</time>
      </trkpt>
      <trkpt lat="48.70767" lon="7.27069">
        <ele>454.4</ele>
        <time>2020-05-10T15:19:53Z</time>
      </trkpt>
      <trkpt lat="48.70769" lon="7.27069">
        <ele>454.4</ele>
        <time>2020-05-10T15:19:54Z</time>
      </trkpt>
      <trkpt lat="48.70771" lon="7.27065">
        <ele>454.5</ele>
        <time>2020-05-10T15:19:56Z</time>
      </trkpt>
      <trkpt lat="48.70773" lon="7.27062">
        <ele>454.6</ele>
        <time>2020-05-10T15:19:57Z</time>
      </trkpt>
      <trkpt lat="48.70775" lon="7.27059">
        <ele>454.7</ele>
        <time>2020-05-10T15:19:58Z</time>
      </trkpt>
      <trkpt lat="48.7078" lon="7.27056">
        <ele>454.9</ele>
        <time>2020-05-10T15:20:00Z</time>
      </trkpt>
      <trkpt lat="48.70784" lon="7.27049">
        <ele>455.2</ele>
        <time>2020-05-10T15:20:02Z</time>
      </trkpt>
      <trkpt lat="48.70786" lon="7.27045">
        <ele>455.3</ele>
        <time>2020-05-10T15:20:03Z</time>
      </trkpt>
      <trkpt lat="48.70788" lon="7.27042">
        <ele>455.4</ele>
        <time>2020-05-10T15:20:04Z</time>
      </trkpt>
      <trkpt lat="48.70791" lon="7.27032">
        <ele>455.7</ele>
        <time>2020-05-10T15:20:06Z</time>
      </trkpt>
      <trkpt lat="48.70794" lon="7.27022">
        <ele>455.9</ele>
        <time>2020-05-10T15:20:08Z</time>
      </trkpt>
      <trkpt lat="48.70796" lon="7.27017">
        <ele>456</ele>
        <time>2020-05-10T15:20:09Z</time>
      </trkpt>
      <trkpt lat="48.70797" lon="7.27013">
        <ele>456.1</ele>
        <time>2020-05-10T15:20:10Z</time>
      </trkpt>
      <trkpt lat="48.70798" lon="7.27009">
        <ele>456.1</ele>
        <time>2020-05-10T15:20:11Z</time>
      </trkpt>
      <trkpt lat="48.70802" lon="7.27">
        <ele>456.2</ele>
        <time>2020-05-10T15:20:13Z</time>
      </trkpt>
      <trkpt lat="48.70806" lon="7.26989">
        <ele>456.3</ele>
        <time>2020-05-10T15:20:15Z</time>
      </trkpt>
      <trkpt lat="48.70807" lon="7.26982">
        <ele>456.3</ele>
        <time>2020-05-10T15:20:16Z</time>
      </trkpt>
      <trkpt lat="48.70808" lon="7.26972">
        <ele>456.3</ele>
        <time>2020-05-10T15:20:18Z</time>
      </trkpt>
      <trkpt lat="48.7081" lon="7.26965">
        <ele>456.3</ele>
        <time>2020-05-10T15:20:20Z</time>
      </trkpt>
      <trkpt lat="48.70813" lon="7.26957">
        <ele>456.2</ele>
        <time>2020-05-10T15:20:21Z</time>
      </trkpt>
      <trkpt lat="48.70817" lon="7.2695">
        <ele>455.9</ele>
        <time>2020-05-10T15:20:23Z</time>
      </trkpt>
      <trkpt lat="48.70818" lon="7.26946">
        <ele>455.8</ele>
        <time>2020-05-10T15:20:24Z</time>
      </trkpt>
      <trkpt lat="48.70819" lon="7.26941">
        <ele>455.7</ele>
        <time>2020-05-10T15:20:25Z</time>
      </trkpt>
      <trkpt lat="48.70819" lon="7.26935">
        <ele>455.5</ele>
        <time>2020-05-10T15:20:26Z</time>
      </trkpt>
      <trkpt lat="48.7082" lon="7.26929">
        <ele>455.3</ele>
        <time>2020-05-10T15:20:28Z</time>
      </trkpt>
      <trkpt lat="48.70822" lon="7.26924">
        <ele>455.1</ele>
        <time>2020-05-10T15:20:29Z</time>
      </trkpt>
      <trkpt lat="48.70823" lon="7.26916">
        <ele>454.7</ele>
        <time>2020-05-10T15:20:30Z</time>
      </trkpt>
      <trkpt lat="48.70827" lon="7.26901">
        <ele>454.2</ele>
        <time>2020-05-10T15:20:32Z</time>
      </trkpt>
      <trkpt lat="48.7083" lon="7.26893">
        <ele>453.9</ele>
        <time>2020-05-10T15:20:33Z</time>
      </trkpt>
      <trkpt lat="48.70835" lon="7.26882">
        <ele>453.5</ele>
        <time>2020-05-10T15:20:35Z</time>
      </trkpt>
      <trkpt lat="48.70844" lon="7.26869">
        <ele>452.9</ele>
        <time>2020-05-10T15:20:37Z</time>
      </trkpt>
      <trkpt lat="48.70849" lon="7.26854">
        <ele>452.4</ele>
        <time>2020-05-10T15:20:39Z</time>
      </trkpt>
      <trkpt lat="48.70856" lon="7.26841">
        <ele>451.8</ele>
        <time>2020-05-10T15:20:41Z</time>
      </trkpt>
      <trkpt lat="48.70858" lon="7.26837">
        <ele>451.7</ele>
        <time>2020-05-10T15:20:42Z</time>
      </trkpt>
      <trkpt lat="48.70864" lon="7.26832">
        <ele>451.3</ele>
        <time>2020-05-10T15:20:43Z</time>
      </trkpt>
      <trkpt lat="48.70871" lon="7.26817">
        <ele>450.7</ele>
        <time>2020-05-10T15:20:45Z</time>
      </trkpt>
      <trkpt lat="48.70874" lon="7.2681">
        <ele>450.5</ele>
        <time>2020-05-10T15:20:46Z</time>
      </trkpt>
      <trkpt lat="48.70877" lon="7.26802">
        <ele>450.1</ele>
        <time>2020-05-10T15:20:47Z</time>
      </trkpt>
      <trkpt lat="48.70886" lon="7.26783">
        <ele>449.3</ele>
        <time>2020-05-10T15:20:49Z</time>
      </trkpt>
      <trkpt lat="48.7089" lon="7.26773">
        <ele>449</ele>
        <time>2020-05-10T15:20:50Z</time>
      </trkpt>
      <trkpt lat="48.70902" lon="7.26752">
        <ele>448.3</ele>
        <time>2020-05-10T15:20:52Z</time>
      </trkpt>
      <trkpt lat="48.70909" lon="7.26739">
        <ele>448.1</ele>
        <time>2020-05-10T15:20:53Z</time>
      </trkpt>
      <trkpt lat="48.70912" lon="7.26733">
        <ele>448</ele>
        <time>2020-05-10T15:20:54Z</time>
      </trkpt>
      <trkpt lat="48.70921" lon="7.26719">
        <ele>447.8</ele>
        <time>2020-05-10T15:20:56Z</time>
      </trkpt>
      <trkpt lat="48.70928" lon="7.26703">
        <ele>447.6</ele>
        <time>2020-05-10T15:20:58Z</time>
      </trkpt>
      <trkpt lat="48.70931" lon="7.26692">
        <ele>447.6</ele>
        <time>2020-05-10T15:20:59Z</time>
      </trkpt>
      <trkpt lat="48.70932" lon="7.26683">
        <ele>447.6</ele>
        <time>2020-05-10T15:21:00Z</time>
      </trkpt>
      <trkpt lat="48.70934" lon="7.26673">
        <ele>447.7</ele>
        <time>2020-05-10T15:21:01Z</time>
      </trkpt>
      <trkpt lat="48.70943" lon="7.26656">
        <ele>447.8</ele>
        <time>2020-05-10T15:21:03Z</time>
      </trkpt>
      <trkpt lat="48.70952" lon="7.26643">
        <ele>447.8</ele>
        <time>2020-05-10T15:21:05Z</time>
      </trkpt>
      <trkpt lat="48.70957" lon="7.26637">
        <ele>447.8</ele>
        <time>2020-05-10T15:21:06Z</time>
      </trkpt>
      <trkpt lat="48.70968" lon="7.26629">
        <ele>447.8</ele>
        <time>2020-05-10T15:21:08Z</time>
      </trkpt>
      <trkpt lat="48.7098" lon="7.26625">
        <ele>447.8</ele>
        <time>2020-05-10T15:21:10Z</time>
      </trkpt>
      <trkpt lat="48.70986" lon="7.26624">
        <ele>447.7</ele>
        <time>2020-05-10T15:21:11Z</time>
      </trkpt>
      <trkpt lat="48.70999" lon="7.26618">
        <ele>447.6</ele>
        <time>2020-05-10T15:21:13Z</time>
      </trkpt>
      <trkpt lat="48.71007" lon="7.26616">
        <ele>447.4</ele>
        <time>2020-05-10T15:21:14Z</time>
      </trkpt>
      <trkpt lat="48.71013" lon="7.26613">
        <ele>447.2</ele>
        <time>2020-05-10T15:21:15Z</time>
      </trkpt>
      <trkpt lat="48.71023" lon="7.26603">
        <ele>447</ele>
        <time>2020-05-10T15:21:17Z</time>
      </trkpt>
      <trkpt lat="48.71033" lon="7.26588">
        <ele>447</ele>
        <time>2020-05-10T15:21:18Z</time>
      </trkpt>
      <trkpt lat="48.71039" lon="7.26584">
        <ele>447</ele>
        <time>2020-05-10T15:21:19Z</time>
      </trkpt>
      <trkpt lat="48.71057" lon="7.26586">
        <ele>446.9</ele>
        <time>2020-05-10T15:21:21Z</time>
      </trkpt>
      <trkpt lat="48.71065" lon="7.26586">
        <ele>446.9</ele>
        <time>2020-05-10T15:21:22Z</time>
      </trkpt>
      <trkpt lat="48.71075" lon="7.26581">
        <ele>447</ele>
        <time>2020-05-10T15:21:24Z</time>
      </trkpt>
      <trkpt lat="48.71083" lon="7.26588">
        <ele>447.1</ele>
        <time>2020-05-10T15:21:26Z</time>
      </trkpt>
      <trkpt lat="48.71087" lon="7.266">
        <ele>447.3</ele>
        <time>2020-05-10T15:21:30Z</time>
      </trkpt>
      <trkpt lat="48.71087" lon="7.26617">
        <ele>447.6</ele>
        <time>2020-05-10T15:21:32Z</time>
      </trkpt>
      <trkpt lat="48.7109" lon="7.26635">
        <ele>447.7</ele>
        <time>2020-05-10T15:21:34Z</time>
      </trkpt>
      <trkpt lat="48.71093" lon="7.26652">
        <ele>447.7</ele>
        <time>2020-05-10T15:21:36Z</time>
      </trkpt>
      <trkpt lat="48.71096" lon="7.26666">
        <ele>447.7</ele>
        <time>2020-05-10T15:21:38Z</time>
      </trkpt>
      <trkpt lat="48.71096" lon="7.26673">
        <ele>447.8</ele>
        <time>2020-05-10T15:21:39Z</time>
      </trkpt>
      <trkpt lat="48.71098" lon="7.2669">
        <ele>447.9</ele>
        <time>2020-05-10T15:21:41Z</time>
      </trkpt>
      <trkpt lat="48.711" lon="7.26709">
        <ele>448.1</ele>
        <time>2020-05-10T15:21:43Z</time>
      </trkpt>
      <trkpt lat="48.71104" lon="7.26725">
        <ele>448.5</ele>
        <time>2020-05-10T15:21:45Z</time>
      </trkpt>
      <trkpt lat="48.7111" lon="7.26739">
        <ele>449</ele>
        <time>2020-05-10T15:21:47Z</time>
      </trkpt>
      <trkpt lat="48.71116" lon="7.2675">
        <ele>449.4</ele>
        <time>2020-05-10T15:21:49Z</time>
      </trkpt>
      <trkpt lat="48.71123" lon="7.26762">
        <ele>449.8</ele>
        <time>2020-05-10T15:21:51Z</time>
      </trkpt>
      <trkpt lat="48.71127" lon="7.26774">
        <ele>450.2</ele>
        <time>2020-05-10T15:21:53Z</time>
      </trkpt>
      <trkpt lat="48.71129" lon="7.26778">
        <ele>450.4</ele>
        <time>2020-05-10T15:21:54Z</time>
      </trkpt>
      <trkpt lat="48.71133" lon="7.26789">
        <ele>450.7</ele>
        <time>2020-05-10T15:21:56Z</time>
      </trkpt>
      <trkpt lat="48.71134" lon="7.26799">
        <ele>451</ele>
        <time>2020-05-10T15:21:58Z</time>
      </trkpt>
      <trkpt lat="48.71136" lon="7.26803">
        <ele>451.1</ele>
        <time>2020-05-10T15:21:59Z</time>
      </trkpt>
      <trkpt lat="48.71143" lon="7.26815">
        <ele>451.5</ele>
        <time>2020-05-10T15:22:01Z</time>
      </trkpt>
      <trkpt lat="48.71149" lon="7.26822">
        <ele>451.8</ele>
        <time>2020-05-10T15:22:03Z</time>
      </trkpt>
      <trkpt lat="48.71155" lon="7.26834">
        <ele>452.2</ele>
        <time>2020-05-10T15:22:05Z</time>
      </trkpt>
      <trkpt lat="48.7116" lon="7.26845">
        <ele>452.6</ele>
        <time>2020-05-10T15:22:07Z</time>
      </trkpt>
      <trkpt lat="48.71163" lon="7.26851">
        <ele>452.7</ele>
        <time>2020-05-10T15:22:08Z</time>
      </trkpt>
      <trkpt lat="48.71167" lon="7.26861">
        <ele>453</ele>
        <time>2020-05-10T15:22:10Z</time>
      </trkpt>
      <trkpt lat="48.71171" lon="7.26867">
        <ele>453.2</ele>
        <time>2020-05-10T15:22:12Z</time>
      </trkpt>
      <trkpt lat="48.71176" lon="7.26876">
        <ele>453.5</ele>
        <time>2020-05-10T15:22:14Z</time>
      </trkpt>
      <trkpt lat="48.71178" lon="7.26882">
        <ele>453.7</ele>
        <time>2020-05-10T15:22:15Z</time>
      </trkpt>
      <trkpt lat="48.71179" lon="7.26886">
        <ele>453.8</ele>
        <time>2020-05-10T15:22:16Z</time>
      </trkpt>
      <trkpt lat="48.71182" lon="7.26894">
        <ele>454</ele>
        <time>2020-05-10T15:22:18Z</time>
      </trkpt>
      <trkpt lat="48.71186" lon="7.269">
        <ele>454.3</ele>
        <time>2020-05-10T15:22:20Z</time>
      </trkpt>
      <trkpt lat="48.71189" lon="7.26904">
        <ele>454.4</ele>
        <time>2020-05-10T15:22:21Z</time>
      </trkpt>
      <trkpt lat="48.71195" lon="7.26912">
        <ele>454.6</ele>
        <time>2020-05-10T15:22:23Z</time>
      </trkpt>
      <trkpt lat="48.71199" lon="7.26917">
        <ele>454.8</ele>
        <time>2020-05-10T15:22:25Z</time>
      </trkpt>
      <trkpt lat="48.712" lon="7.26921">
        <ele>454.9</ele>
        <time>2020-05-10T15:22:26Z</time>
      </trkpt>
      <trkpt lat="48.71202" lon="7.26925">
        <ele>455</ele>
        <time>2020-05-10T15:22:27Z</time>
      </trkpt>
      <trkpt lat="48.71206" lon="7.26933">
        <ele>455.2</ele>
        <time>2020-05-10T15:22:29Z</time>
      </trkpt>
      <trkpt lat="48.71208" lon="7.26936">
        <ele>455.3</ele>
        <time>2020-05-10T15:22:30Z</time>
      </trkpt>
      <trkpt lat="48.7121" lon="7.26938">
        <ele>455.4</ele>
        <time>2020-05-10T15:22:31Z</time>
      </trkpt>
      <trkpt lat="48.71214" lon="7.26943">
        <ele>455.6</ele>
        <time>2020-05-10T15:22:33Z</time>
      </trkpt>
      <trkpt lat="48.71215" lon="7.26945">
        <ele>455.7</ele>
        <time>2020-05-10T15:22:34Z</time>
      </trkpt>
      <trkpt lat="48.71215" lon="7.26947">
        <ele>455.7</ele>
        <time>2020-05-10T15:22:35Z</time>
      </trkpt>
      <trkpt lat="48.71216" lon="7.2695">
        <ele>455.8</ele>
        <time>2020-05-10T15:22:36Z</time>
      </trkpt>
      <trkpt lat="48.71219" lon="7.26954">
        <ele>455.9</ele>
        <time>2020-05-10T15:22:38Z</time>
      </trkpt>
      <trkpt lat="48.71224" lon="7.26962">
        <ele>456.1</ele>
        <time>2020-05-10T15:22:40Z</time>
      </trkpt>
      <trkpt lat="48.71228" lon="7.2697">
        <ele>456.3</ele>
        <time>2020-05-10T15:22:42Z</time>
      </trkpt>
      <trkpt lat="48.71231" lon="7.26973">
        <ele>456.5</ele>
        <time>2020-05-10T15:22:43Z</time>
      </trkpt>
      <trkpt lat="48.71232" lon="7.26976">
        <ele>456.5</ele>
        <time>2020-05-10T15:22:44Z</time>
      </trkpt>
      <trkpt lat="48.71237" lon="7.26983">
        <ele>456.8</ele>
        <time>2020-05-10T15:22:46Z</time>
      </trkpt>
      <trkpt lat="48.7124" lon="7.26987">
        <ele>456.9</ele>
        <time>2020-05-10T15:22:47Z</time>
      </trkpt>
      <trkpt lat="48.71243" lon="7.26993">
        <ele>457.1</ele>
        <time>2020-05-10T15:22:49Z</time>
      </trkpt>
      <trkpt lat="48.71245" lon="7.26997">
        <ele>457.2</ele>
        <time>2020-05-10T15:22:50Z</time>
      </trkpt>
      <trkpt lat="48.71247" lon="7.27002">
        <ele>457.3</ele>
        <time>2020-05-10T15:22:51Z</time>
      </trkpt>
      <trkpt lat="48.71249" lon="7.27005">
        <ele>457.4</ele>
        <time>2020-05-10T15:22:52Z</time>
      </trkpt>
      <trkpt lat="48.71254" lon="7.27012">
        <ele>457.6</ele>
        <time>2020-05-10T15:22:54Z</time>
      </trkpt>
      <trkpt lat="48.71256" lon="7.27016">
        <ele>457.7</ele>
        <time>2020-05-10T15:22:55Z</time>
      </trkpt>
      <trkpt lat="48.71261" lon="7.27023">
        <ele>457.9</ele>
        <time>2020-05-10T15:22:57Z</time>
      </trkpt>
      <trkpt lat="48.71262" lon="7.27026">
        <ele>458</ele>
        <time>2020-05-10T15:22:58Z</time>
      </trkpt>
      <trkpt lat="48.71264" lon="7.27031">
        <ele>458.2</ele>
        <time>2020-05-10T15:23:00Z</time>
      </trkpt>
      <trkpt lat="48.71267" lon="7.27036">
        <ele>458.3</ele>
        <time>2020-05-10T15:23:02Z</time>
      </trkpt>
      <trkpt lat="48.71268" lon="7.27039">
        <ele>458.4</ele>
        <time>2020-05-10T15:23:03Z</time>
      </trkpt>
      <trkpt lat="48.71271" lon="7.27046">
        <ele>458.5</ele>
        <time>2020-05-10T15:23:05Z</time>
      </trkpt>
      <trkpt lat="48.71273" lon="7.2705">
        <ele>458.5</ele>
        <time>2020-05-10T15:23:06Z</time>
      </trkpt>
      <trkpt lat="48.71275" lon="7.27055">
        <ele>458.6</ele>
        <time>2020-05-10T15:23:07Z</time>
      </trkpt>
      <trkpt lat="48.71277" lon="7.27058">
        <ele>458.6</ele>
        <time>2020-05-10T15:23:08Z</time>
      </trkpt>
      <trkpt lat="48.71281" lon="7.27065">
        <ele>458.7</ele>
        <time>2020-05-10T15:23:10Z</time>
      </trkpt>
      <trkpt lat="48.71283" lon="7.27069">
        <ele>458.8</ele>
        <time>2020-05-10T15:23:11Z</time>
      </trkpt>
      <trkpt lat="48.71289" lon="7.27077">
        <ele>458.9</ele>
        <time>2020-05-10T15:23:13Z</time>
      </trkpt>
      <trkpt lat="48.71291" lon="7.27081">
        <ele>459</ele>
        <time>2020-05-10T15:23:14Z</time>
      </trkpt>
      <trkpt lat="48.71295" lon="7.27089">
        <ele>459.1</ele>
        <time>2020-05-10T15:23:16Z</time>
      </trkpt>
      <trkpt lat="48.71297" lon="7.27093">
        <ele>459.2</ele>
        <time>2020-05-10T15:23:17Z</time>
      </trkpt>
      <trkpt lat="48.71302" lon="7.271">
        <ele>459.4</ele>
        <time>2020-05-10T15:23:19Z</time>
      </trkpt>
      <trkpt lat="48.71305" lon="7.27108">
        <ele>459.6</ele>
        <time>2020-05-10T15:23:21Z</time>
      </trkpt>
      <trkpt lat="48.71307" lon="7.27112">
        <ele>459.6</ele>
        <time>2020-05-10T15:23:22Z</time>
      </trkpt>
      <trkpt lat="48.7131" lon="7.27118">
        <ele>459.7</ele>
        <time>2020-05-10T15:23:24Z</time>
      </trkpt>
      <trkpt lat="48.71311" lon="7.27121">
        <ele>459.7</ele>
        <time>2020-05-10T15:23:25Z</time>
      </trkpt>
      <trkpt lat="48.71315" lon="7.27125">
        <ele>459.8</ele>
        <time>2020-05-10T15:23:27Z</time>
      </trkpt>
      <trkpt lat="48.71323" lon="7.27131">
        <ele>459.9</ele>
        <time>2020-05-10T15:23:29Z</time>
      </trkpt>
      <trkpt lat="48.71327" lon="7.27134">
        <ele>459.9</ele>
        <time>2020-05-10T15:23:30Z</time>
      </trkpt>
      <trkpt lat="48.7133" lon="7.27136">
        <ele>459.9</ele>
        <time>2020-05-10T15:23:31Z</time>
      </trkpt>
      <trkpt lat="48.71337" lon="7.27143">
        <ele>460.2</ele>
        <time>2020-05-10T15:23:33Z</time>
      </trkpt>
      <trkpt lat="48.71342" lon="7.27147">
        <ele>460.3</ele>
        <time>2020-05-10T15:23:34Z</time>
      </trkpt>
      <trkpt lat="48.71349" lon="7.27152">
        <ele>460.6</ele>
        <time>2020-05-10T15:23:36Z</time>
      </trkpt>
      <trkpt lat="48.71352" lon="7.27154">
        <ele>460.7</ele>
        <time>2020-05-10T15:23:37Z</time>
      </trkpt>
      <trkpt lat="48.71358" lon="7.27162">
        <ele>461</ele>
        <time>2020-05-10T15:23:39Z</time>
      </trkpt>
      <trkpt lat="48.71362" lon="7.2717">
        <ele>461.2</ele>
        <time>2020-05-10T15:23:41Z</time>
      </trkpt>
      <trkpt lat="48.71365" lon="7.27175">
        <ele>461.4</ele>
        <time>2020-05-10T15:23:42Z</time>
      </trkpt>
      <trkpt lat="48.71371" lon="7.27186">
        <ele>461.9</ele>
        <time>2020-05-10T15:23:44Z</time>
      </trkpt>
      <trkpt lat="48.71374" lon="7.27191">
        <ele>462.1</ele>
        <time>2020-05-10T15:23:45Z</time>
      </trkpt>
      <trkpt lat="48.71378" lon="7.27197">
        <ele>462.5</ele>
        <time>2020-05-10T15:23:46Z</time>
      </trkpt>
      <trkpt lat="48.71386" lon="7.27212">
        <ele>463.4</ele>
        <time>2020-05-10T15:23:48Z</time>
      </trkpt>
      <trkpt lat="48.71389" lon="7.2722">
        <ele>464</ele>
        <time>2020-05-10T15:23:49Z</time>
      </trkpt>
      <trkpt lat="48.71395" lon="7.27231">
        <ele>464.8</ele>
        <time>2020-05-10T15:23:51Z</time>
      </trkpt>
      <trkpt lat="48.71411" lon="7.27251">
        <ele>465.6</ele>
        <time>2020-05-10T15:23:57Z</time>
      </trkpt>
      <trkpt lat="48.7142" lon="7.27251">
        <ele>465.7</ele>
        <time>2020-05-10T15:23:58Z</time>
      </trkpt>
      <trkpt lat="48.71422" lon="7.27251">
        <ele>465.8</ele>
        <time>2020-05-10T15:23:59Z</time>
      </trkpt>
      <trkpt lat="48.71426" lon="7.27254">
        <ele>466.1</ele>
        <time>2020-05-10T15:24:01Z</time>
      </trkpt>
      <trkpt lat="48.71427" lon="7.27256">
        <ele>466.1</ele>
        <time>2020-05-10T15:24:03Z</time>
      </trkpt>
      <trkpt lat="48.71427" lon="7.27255">
        <ele>466.2</ele>
        <time>2020-05-10T15:24:05Z</time>
      </trkpt>
      <trkpt lat="48.71427" lon="7.27254">
        <ele>466.2</ele>
        <time>2020-05-10T15:24:06Z</time>
      </trkpt>
      <trkpt lat="48.71427" lon="7.27254">
        <ele>466.2</ele>
        <time>2020-05-10T15:24:07Z</time>
      </trkpt>
      <trkpt lat="48.71426" lon="7.27254">
        <ele>466.3</ele>
        <time>2020-05-10T15:24:08Z</time>
      </trkpt>
      <trkpt lat="48.71426" lon="7.27252">
        <ele>466.3</ele>
        <time>2020-05-10T15:24:10Z</time>
      </trkpt>
      <trkpt lat="48.71426" lon="7.27252">
        <ele>466.2</ele>
        <time>2020-05-10T15:24:12Z</time>
      </trkpt>
      <trkpt lat="48.71426" lon="7.27252">
        <ele>466.3</ele>
        <time>2020-05-10T15:24:14Z</time>
      </trkpt>
      <trkpt lat="48.71426" lon="7.27253">
        <ele>466.5</ele>
        <time>2020-05-10T15:24:16Z</time>
      </trkpt>
      <trkpt lat="48.71426" lon="7.27253">
        <ele>466.5</ele>
        <time>2020-05-10T15:24:18Z</time>
      </trkpt>
      <trkpt lat="48.71426" lon="7.27252">
        <ele>466.6</ele>
        <time>2020-05-10T15:24:20Z</time>
      </trkpt>
      <trkpt lat="48.7143" lon="7.27257">
        <ele>466.9</ele>
        <time>2020-05-10T15:24:25Z</time>
      </trkpt>
      <trkpt lat="48.71437" lon="7.27262">
        <ele>467.1</ele>
        <time>2020-05-10T15:24:27Z</time>
      </trkpt>
      <trkpt lat="48.7144" lon="7.27265">
        <ele>467.3</ele>
        <time>2020-05-10T15:24:28Z</time>
      </trkpt>
      <trkpt lat="48.7145" lon="7.27273">
        <ele>467.4</ele>
        <time>2020-05-10T15:24:30Z</time>
      </trkpt>
      <trkpt lat="48.71462" lon="7.27288">
        <ele>468</ele>
        <time>2020-05-10T15:24:32Z</time>
      </trkpt>
      <trkpt lat="48.71466" lon="7.27293">
        <ele>468.2</ele>
        <time>2020-05-10T15:24:33Z</time>
      </trkpt>
      <trkpt lat="48.71478" lon="7.27299">
        <ele>468.1</ele>
        <time>2020-05-10T15:24:35Z</time>
      </trkpt>
      <trkpt lat="48.71492" lon="7.2731">
        <ele>467.4</ele>
        <time>2020-05-10T15:24:37Z</time>
      </trkpt>
      <trkpt lat="48.71499" lon="7.27316">
        <ele>466.2</ele>
        <time>2020-05-10T15:24:38Z</time>
      </trkpt>
      <trkpt lat="48.71505" lon="7.27324">
        <ele>465.7</ele>
        <time>2020-05-10T15:24:40Z</time>
      </trkpt>
      <trkpt lat="48.71511" lon="7.27328">
        <ele>464.8</ele>
        <time>2020-05-10T15:24:41Z</time>
      </trkpt>
      <trkpt lat="48.71516" lon="7.27333">
        <ele>463.8</ele>
        <time>2020-05-10T15:24:42Z</time>
      </trkpt>
      <trkpt lat="48.71526" lon="7.27345">
        <ele>461.5</ele>
        <time>2020-05-10T15:24:44Z</time>
      </trkpt>
      <trkpt lat="48.7153" lon="7.2735">
        <ele>460.9</ele>
        <time>2020-05-10T15:24:45Z</time>
      </trkpt>
      <trkpt lat="48.71542" lon="7.27365">
        <ele>458.9</ele>
        <time>2020-05-10T15:24:47Z</time>
      </trkpt>
      <trkpt lat="48.71546" lon="7.27374">
        <ele>458.9</ele>
        <time>2020-05-10T15:24:48Z</time>
      </trkpt>
      <trkpt lat="48.71552" lon="7.27392">
        <ele>458</ele>
        <time>2020-05-10T15:24:50Z</time>
      </trkpt>
      <trkpt lat="48.71557" lon="7.27408">
        <ele>458.2</ele>
        <time>2020-05-10T15:24:52Z</time>
      </trkpt>
      <trkpt lat="48.71561" lon="7.27415">
        <ele>457.3</ele>
        <time>2020-05-10T15:24:53Z</time>
      </trkpt>
      <trkpt lat="48.7157" lon="7.27428">
        <ele>456.2</ele>
        <time>2020-05-10T15:24:55Z</time>
      </trkpt>
      <trkpt lat="48.71575" lon="7.27436">
        <ele>455.5</ele>
        <time>2020-05-10T15:24:56Z</time>
      </trkpt>
      <trkpt lat="48.71581" lon="7.27443">
        <ele>454.9</ele>
        <time>2020-05-10T15:24:57Z</time>
      </trkpt>
      <trkpt lat="48.71589" lon="7.2745">
        <ele>454.2</ele>
        <time>2020-05-10T15:24:58Z</time>
      </trkpt>
      <trkpt lat="48.71602" lon="7.27458">
        <ele>453.5</ele>
        <time>2020-05-10T15:25:00Z</time>
      </trkpt>
      <trkpt lat="48.71608" lon="7.27464">
        <ele>453.1</ele>
        <time>2020-05-10T15:25:01Z</time>
      </trkpt>
      <trkpt lat="48.71614" lon="7.2747">
        <ele>452.2</ele>
        <time>2020-05-10T15:25:02Z</time>
      </trkpt>
      <trkpt lat="48.71624" lon="7.27479">
        <ele>451.4</ele>
        <time>2020-05-10T15:25:04Z</time>
      </trkpt>
      <trkpt lat="48.71629" lon="7.27482">
        <ele>451.2</ele>
        <time>2020-05-10T15:25:05Z</time>
      </trkpt>
      <trkpt lat="48.71637" lon="7.27486">
        <ele>450.6</ele>
        <time>2020-05-10T15:25:07Z</time>
      </trkpt>
      <trkpt lat="48.71645" lon="7.27488">
        <ele>450.2</ele>
        <time>2020-05-10T15:25:09Z</time>
      </trkpt>
      <trkpt lat="48.71649" lon="7.27494">
        <ele>449.9</ele>
        <time>2020-05-10T15:25:10Z</time>
      </trkpt>
      <trkpt lat="48.71651" lon="7.27506">
        <ele>449.7</ele>
        <time>2020-05-10T15:25:12Z</time>
      </trkpt>
      <trkpt lat="48.71651" lon="7.27509">
        <ele>449.7</ele>
        <time>2020-05-10T15:25:14Z</time>
      </trkpt>
      <trkpt lat="48.71652" lon="7.27509">
        <ele>449.7</ele>
        <time>2020-05-10T15:25:15Z</time>
      </trkpt>
      <trkpt lat="48.71653" lon="7.2751">
        <ele>449.7</ele>
        <time>2020-05-10T15:25:16Z</time>
      </trkpt>
      <trkpt lat="48.71654" lon="7.2751">
        <ele>449.7</ele>
        <time>2020-05-10T15:25:18Z</time>
      </trkpt>
      <trkpt lat="48.71654" lon="7.2751">
        <ele>449.7</ele>
        <time>2020-05-10T15:25:20Z</time>
      </trkpt>
      <trkpt lat="48.71653" lon="7.27511">
        <ele>449.7</ele>
        <time>2020-05-10T15:25:21Z</time>
      </trkpt>
      <trkpt lat="48.71653" lon="7.27511">
        <ele>449.7</ele>
        <time>2020-05-10T15:25:22Z</time>
      </trkpt>
      <trkpt lat="48.71653" lon="7.27511">
        <ele>449.7</ele>
        <time>2020-05-10T15:25:24Z</time>
      </trkpt>
      <trkpt lat="48.71653" lon="7.27511">
        <ele>449.7</ele>
        <time>2020-05-10T15:25:26Z</time>
      </trkpt>
      <trkpt lat="48.71653" lon="7.27511">
        <ele>449.7</ele>
        <time>2020-05-10T15:25:27Z</time>
      </trkpt>
      <trkpt lat="48.71653" lon="7.27511">
        <ele>449.7</ele>
        <time>2020-05-10T15:25:28Z</time>
      </trkpt>
      <trkpt lat="48.71653" lon="7.27514">
        <ele>449.7</ele>
        <time>2020-05-10T15:25:35Z</time>
      </trkpt>
      <trkpt lat="48.71651" lon="7.27516">
        <ele>449.7</ele>
        <time>2020-05-10T15:25:36Z</time>
      </trkpt>
      <trkpt lat="48.71647" lon="7.27525">
        <ele>449.3</ele>
        <time>2020-05-10T15:25:38Z</time>
      </trkpt>
      <trkpt lat="48.7164" lon="7.27535">
        <ele>449</ele>
        <time>2020-05-10T15:25:40Z</time>
      </trkpt>
      <trkpt lat="48.71637" lon="7.27539">
        <ele>448.8</ele>
        <time>2020-05-10T15:25:41Z</time>
      </trkpt>
      <trkpt lat="48.7163" lon="7.27548">
        <ele>448.5</ele>
        <time>2020-05-10T15:25:43Z</time>
      </trkpt>
      <trkpt lat="48.71627" lon="7.27554">
        <ele>448.3</ele>
        <time>2020-05-10T15:25:44Z</time>
      </trkpt>
      <trkpt lat="48.71618" lon="7.27565">
        <ele>447.7</ele>
        <time>2020-05-10T15:25:46Z</time>
      </trkpt>
      <trkpt lat="48.71607" lon="7.27577">
        <ele>446.9</ele>
        <time>2020-05-10T15:25:48Z</time>
      </trkpt>
      <trkpt lat="48.71601" lon="7.27587">
        <ele>446.4</ele>
        <time>2020-05-10T15:25:49Z</time>
      </trkpt>
      <trkpt lat="48.71589" lon="7.27604">
        <ele>445.3</ele>
        <time>2020-05-10T15:25:51Z</time>
      </trkpt>
      <trkpt lat="48.7158" lon="7.27619">
        <ele>444.3</ele>
        <time>2020-05-10T15:25:53Z</time>
      </trkpt>
      <trkpt lat="48.71576" lon="7.27627">
        <ele>443.9</ele>
        <time>2020-05-10T15:25:54Z</time>
      </trkpt>
      <trkpt lat="48.71566" lon="7.27648">
        <ele>442.9</ele>
        <time>2020-05-10T15:25:56Z</time>
      </trkpt>
      <trkpt lat="48.71553" lon="7.27668">
        <ele>441.8</ele>
        <time>2020-05-10T15:25:58Z</time>
      </trkpt>
      <trkpt lat="48.71548" lon="7.27674">
        <ele>441.4</ele>
        <time>2020-05-10T15:25:59Z</time>
      </trkpt>
      <trkpt lat="48.71534" lon="7.27684">
        <ele>440.4</ele>
        <time>2020-05-10T15:26:01Z</time>
      </trkpt>
      <trkpt lat="48.71528" lon="7.27689">
        <ele>440</ele>
        <time>2020-05-10T15:26:02Z</time>
      </trkpt>
      <trkpt lat="48.71515" lon="7.27703">
        <ele>439</ele>
        <time>2020-05-10T15:26:04Z</time>
      </trkpt>
      <trkpt lat="48.71502" lon="7.27719">
        <ele>438</ele>
        <time>2020-05-10T15:26:06Z</time>
      </trkpt>
      <trkpt lat="48.71493" lon="7.27739">
        <ele>437.1</ele>
        <time>2020-05-10T15:26:08Z</time>
      </trkpt>
      <trkpt lat="48.71489" lon="7.27748">
        <ele>436.7</ele>
        <time>2020-05-10T15:26:09Z</time>
      </trkpt>
      <trkpt lat="48.71485" lon="7.2776">
        <ele>436.3</ele>
        <time>2020-05-10T15:26:10Z</time>
      </trkpt>
      <trkpt lat="48.71477" lon="7.27783">
        <ele>435.4</ele>
        <time>2020-05-10T15:26:12Z</time>
      </trkpt>
      <trkpt lat="48.71473" lon="7.27793">
        <ele>435</ele>
        <time>2020-05-10T15:26:13Z</time>
      </trkpt>
      <trkpt lat="48.71467" lon="7.27809">
        <ele>434.4</ele>
        <time>2020-05-10T15:26:15Z</time>
      </trkpt>
      <trkpt lat="48.71461" lon="7.27825">
        <ele>433.9</ele>
        <time>2020-05-10T15:26:17Z</time>
      </trkpt>
      <trkpt lat="48.71457" lon="7.27836">
        <ele>433.5</ele>
        <time>2020-05-10T15:26:18Z</time>
      </trkpt>
      <trkpt lat="48.71454" lon="7.27856">
        <ele>432.8</ele>
        <time>2020-05-10T15:26:20Z</time>
      </trkpt>
      <trkpt lat="48.71453" lon="7.27866">
        <ele>432.5</ele>
        <time>2020-05-10T15:26:21Z</time>
      </trkpt>
      <trkpt lat="48.71452" lon="7.27887">
        <ele>431.7</ele>
        <time>2020-05-10T15:26:23Z</time>
      </trkpt>
      <trkpt lat="48.71453" lon="7.27899">
        <ele>431.3</ele>
        <time>2020-05-10T15:26:24Z</time>
      </trkpt>
      <trkpt lat="48.71455" lon="7.27911">
        <ele>430.8</ele>
        <time>2020-05-10T15:26:25Z</time>
      </trkpt>
      <trkpt lat="48.71456" lon="7.27922">
        <ele>430.3</ele>
        <time>2020-05-10T15:26:26Z</time>
      </trkpt>
      <trkpt lat="48.71458" lon="7.27933">
        <ele>429.9</ele>
        <time>2020-05-10T15:26:27Z</time>
      </trkpt>
      <trkpt lat="48.7146" lon="7.27957">
        <ele>428.7</ele>
        <time>2020-05-10T15:26:29Z</time>
      </trkpt>
      <trkpt lat="48.71462" lon="7.2797">
        <ele>428.1</ele>
        <time>2020-05-10T15:26:30Z</time>
      </trkpt>
      <trkpt lat="48.71464" lon="7.27982">
        <ele>427.5</ele>
        <time>2020-05-10T15:26:31Z</time>
      </trkpt>
      <trkpt lat="48.71465" lon="7.27992">
        <ele>427.1</ele>
        <time>2020-05-10T15:26:32Z</time>
      </trkpt>
      <trkpt lat="48.71467" lon="7.2801">
        <ele>426.4</ele>
        <time>2020-05-10T15:26:34Z</time>
      </trkpt>
      <trkpt lat="48.71468" lon="7.28023">
        <ele>425.9</ele>
        <time>2020-05-10T15:26:36Z</time>
      </trkpt>
      <trkpt lat="48.71469" lon="7.28032">
        <ele>425.6</ele>
        <time>2020-05-10T15:26:37Z</time>
      </trkpt>
      <trkpt lat="48.71473" lon="7.28052">
        <ele>424.8</ele>
        <time>2020-05-10T15:26:39Z</time>
      </trkpt>
      <trkpt lat="48.71474" lon="7.28061">
        <ele>424.5</ele>
        <time>2020-05-10T15:26:40Z</time>
      </trkpt>
      <trkpt lat="48.71478" lon="7.2808">
        <ele>423.8</ele>
        <time>2020-05-10T15:26:42Z</time>
      </trkpt>
      <trkpt lat="48.7148" lon="7.28091">
        <ele>423.4</ele>
        <time>2020-05-10T15:26:43Z</time>
      </trkpt>
      <trkpt lat="48.71483" lon="7.28102">
        <ele>423.1</ele>
        <time>2020-05-10T15:26:44Z</time>
      </trkpt>
      <trkpt lat="48.71489" lon="7.28121">
        <ele>422.4</ele>
        <time>2020-05-10T15:26:46Z</time>
      </trkpt>
      <trkpt lat="48.7149" lon="7.2813">
        <ele>422.1</ele>
        <time>2020-05-10T15:26:47Z</time>
      </trkpt>
      <trkpt lat="48.71496" lon="7.28148">
        <ele>421.6</ele>
        <time>2020-05-10T15:26:49Z</time>
      </trkpt>
      <trkpt lat="48.71499" lon="7.28157">
        <ele>421.3</ele>
        <time>2020-05-10T15:26:50Z</time>
      </trkpt>
      <trkpt lat="48.71505" lon="7.28174">
        <ele>420.7</ele>
        <time>2020-05-10T15:26:52Z</time>
      </trkpt>
      <trkpt lat="48.71512" lon="7.28194">
        <ele>420</ele>
        <time>2020-05-10T15:26:54Z</time>
      </trkpt>
      <trkpt lat="48.7152" lon="7.28215">
        <ele>419.6</ele>
        <time>2020-05-10T15:26:56Z</time>
      </trkpt>
      <trkpt lat="48.71523" lon="7.28224">
        <ele>419.4</ele>
        <time>2020-05-10T15:26:57Z</time>
      </trkpt>
      <trkpt lat="48.71527" lon="7.28234">
        <ele>419</ele>
        <time>2020-05-10T15:26:58Z</time>
      </trkpt>
      <trkpt lat="48.71532" lon="7.28245">
        <ele>418.7</ele>
        <time>2020-05-10T15:26:59Z</time>
      </trkpt>
      <trkpt lat="48.71539" lon="7.28266">
        <ele>418.2</ele>
        <time>2020-05-10T15:27:01Z</time>
      </trkpt>
      <trkpt lat="48.71542" lon="7.28276">
        <ele>418</ele>
        <time>2020-05-10T15:27:02Z</time>
      </trkpt>
      <trkpt lat="48.71546" lon="7.28296">
        <ele>417.6</ele>
        <time>2020-05-10T15:27:04Z</time>
      </trkpt>
      <trkpt lat="48.7155" lon="7.28306">
        <ele>417.4</ele>
        <time>2020-05-10T15:27:05Z</time>
      </trkpt>
      <trkpt lat="48.71556" lon="7.28322">
        <ele>417</ele>
        <time>2020-05-10T15:27:07Z</time>
      </trkpt>
      <trkpt lat="48.71558" lon="7.2833">
        <ele>416.8</ele>
        <time>2020-05-10T15:27:08Z</time>
      </trkpt>
      <trkpt lat="48.71565" lon="7.28347">
        <ele>416</ele>
        <time>2020-05-10T15:27:10Z</time>
      </trkpt>
      <trkpt lat="48.71568" lon="7.28356">
        <ele>415.6</ele>
        <time>2020-05-10T15:27:11Z</time>
      </trkpt>
      <trkpt lat="48.71571" lon="7.28377">
        <ele>414.5</ele>
        <time>2020-05-10T15:27:13Z</time>
      </trkpt>
      <trkpt lat="48.71575" lon="7.28397">
        <ele>413.4</ele>
        <time>2020-05-10T15:27:15Z</time>
      </trkpt>
      <trkpt lat="48.71576" lon="7.28407">
        <ele>412.7</ele>
        <time>2020-05-10T15:27:16Z</time>
      </trkpt>
      <trkpt lat="48.71577" lon="7.2843">
        <ele>411.2</ele>
        <time>2020-05-10T15:27:18Z</time>
      </trkpt>
      <trkpt lat="48.71578" lon="7.2845">
        <ele>409.9</ele>
        <time>2020-05-10T15:27:20Z</time>
      </trkpt>
      <trkpt lat="48.71579" lon="7.2846">
        <ele>409.2</ele>
        <time>2020-05-10T15:27:21Z</time>
      </trkpt>
      <trkpt lat="48.71581" lon="7.28481">
        <ele>407.8</ele>
        <time>2020-05-10T15:27:23Z</time>
      </trkpt>
      <trkpt lat="48.71582" lon="7.28492">
        <ele>407</ele>
        <time>2020-05-10T15:27:24Z</time>
      </trkpt>
      <trkpt lat="48.7158" lon="7.28513">
        <ele>405.6</ele>
        <time>2020-05-10T15:27:26Z</time>
      </trkpt>
      <trkpt lat="48.71579" lon="7.28523">
        <ele>404.9</ele>
        <time>2020-05-10T15:27:27Z</time>
      </trkpt>
      <trkpt lat="48.71573" lon="7.28542">
        <ele>403.5</ele>
        <time>2020-05-10T15:27:29Z</time>
      </trkpt>
      <trkpt lat="48.71571" lon="7.28553">
        <ele>402.8</ele>
        <time>2020-05-10T15:27:30Z</time>
      </trkpt>
      <trkpt lat="48.71567" lon="7.28564">
        <ele>402</ele>
        <time>2020-05-10T15:27:31Z</time>
      </trkpt>
      <trkpt lat="48.71562" lon="7.28585">
        <ele>400.7</ele>
        <time>2020-05-10T15:27:33Z</time>
      </trkpt>
      <trkpt lat="48.71559" lon="7.2861">
        <ele>399.5</ele>
        <time>2020-05-10T15:27:35Z</time>
      </trkpt>
      <trkpt lat="48.71558" lon="7.28622">
        <ele>398.9</ele>
        <time>2020-05-10T15:27:36Z</time>
      </trkpt>
      <trkpt lat="48.71557" lon="7.28645">
        <ele>397.9</ele>
        <time>2020-05-10T15:27:38Z</time>
      </trkpt>
      <trkpt lat="48.71556" lon="7.28666">
        <ele>397</ele>
        <time>2020-05-10T15:27:40Z</time>
      </trkpt>
      <trkpt lat="48.71555" lon="7.28687">
        <ele>396.2</ele>
        <time>2020-05-10T15:27:42Z</time>
      </trkpt>
      <trkpt lat="48.71557" lon="7.28699">
        <ele>395.8</ele>
        <time>2020-05-10T15:27:43Z</time>
      </trkpt>
      <trkpt lat="48.71562" lon="7.28721">
        <ele>395</ele>
        <time>2020-05-10T15:27:45Z</time>
      </trkpt>
      <trkpt lat="48.71566" lon="7.28741">
        <ele>394.3</ele>
        <time>2020-05-10T15:27:47Z</time>
      </trkpt>
      <trkpt lat="48.7157" lon="7.2876">
        <ele>393.8</ele>
        <time>2020-05-10T15:27:49Z</time>
      </trkpt>
      <trkpt lat="48.71575" lon="7.28777">
        <ele>393.3</ele>
        <time>2020-05-10T15:27:51Z</time>
      </trkpt>
      <trkpt lat="48.71578" lon="7.28795">
        <ele>392.9</ele>
        <time>2020-05-10T15:27:53Z</time>
      </trkpt>
      <trkpt lat="48.7158" lon="7.28804">
        <ele>392.7</ele>
        <time>2020-05-10T15:27:54Z</time>
      </trkpt>
      <trkpt lat="48.71587" lon="7.28819">
        <ele>392.3</ele>
        <time>2020-05-10T15:27:56Z</time>
      </trkpt>
      <trkpt lat="48.71595" lon="7.28835">
        <ele>391.9</ele>
        <time>2020-05-10T15:27:58Z</time>
      </trkpt>
      <trkpt lat="48.716" lon="7.28843">
        <ele>391.7</ele>
        <time>2020-05-10T15:27:59Z</time>
      </trkpt>
      <trkpt lat="48.71609" lon="7.28856">
        <ele>391.3</ele>
        <time>2020-05-10T15:28:01Z</time>
      </trkpt>
      <trkpt lat="48.71621" lon="7.28872">
        <ele>391</ele>
        <time>2020-05-10T15:28:03Z</time>
      </trkpt>
      <trkpt lat="48.7163" lon="7.28887">
        <ele>390.7</ele>
        <time>2020-05-10T15:28:05Z</time>
      </trkpt>
      <trkpt lat="48.71639" lon="7.289">
        <ele>390.5</ele>
        <time>2020-05-10T15:28:07Z</time>
      </trkpt>
      <trkpt lat="48.71644" lon="7.28907">
        <ele>390.4</ele>
        <time>2020-05-10T15:28:08Z</time>
      </trkpt>
      <trkpt lat="48.71651" lon="7.28923">
        <ele>390.2</ele>
        <time>2020-05-10T15:28:10Z</time>
      </trkpt>
      <trkpt lat="48.71654" lon="7.28931">
        <ele>390</ele>
        <time>2020-05-10T15:28:11Z</time>
      </trkpt>
      <trkpt lat="48.71662" lon="7.28949">
        <ele>389.7</ele>
        <time>2020-05-10T15:28:13Z</time>
      </trkpt>
      <trkpt lat="48.71668" lon="7.28957">
        <ele>389.5</ele>
        <time>2020-05-10T15:28:14Z</time>
      </trkpt>
      <trkpt lat="48.7168" lon="7.28973">
        <ele>389.1</ele>
        <time>2020-05-10T15:28:16Z</time>
      </trkpt>
      <trkpt lat="48.71689" lon="7.28985">
        <ele>388.8</ele>
        <time>2020-05-10T15:28:18Z</time>
      </trkpt>
      <trkpt lat="48.717" lon="7.28996">
        <ele>388.2</ele>
        <time>2020-05-10T15:28:20Z</time>
      </trkpt>
      <trkpt lat="48.71706" lon="7.29">
        <ele>387.9</ele>
        <time>2020-05-10T15:28:21Z</time>
      </trkpt>
      <trkpt lat="48.71716" lon="7.29011">
        <ele>387.5</ele>
        <time>2020-05-10T15:28:23Z</time>
      </trkpt>
      <trkpt lat="48.71728" lon="7.2902">
        <ele>387.1</ele>
        <time>2020-05-10T15:28:25Z</time>
      </trkpt>
      <trkpt lat="48.71739" lon="7.29028">
        <ele>386.6</ele>
        <time>2020-05-10T15:28:27Z</time>
      </trkpt>
      <trkpt lat="48.71751" lon="7.29039">
        <ele>385.7</ele>
        <time>2020-05-10T15:28:29Z</time>
      </trkpt>
      <trkpt lat="48.71756" lon="7.29046">
        <ele>385.2</ele>
        <time>2020-05-10T15:28:30Z</time>
      </trkpt>
      <trkpt lat="48.71767" lon="7.29067">
        <ele>383.8</ele>
        <time>2020-05-10T15:28:32Z</time>
      </trkpt>
      <trkpt lat="48.71772" lon="7.29091">
        <ele>382.4</ele>
        <time>2020-05-10T15:28:34Z</time>
      </trkpt>
      <trkpt lat="48.71772" lon="7.29104">
        <ele>381.6</ele>
        <time>2020-05-10T15:28:35Z</time>
      </trkpt>
      <trkpt lat="48.7177" lon="7.29129">
        <ele>379.9</ele>
        <time>2020-05-10T15:28:37Z</time>
      </trkpt>
      <trkpt lat="48.71769" lon="7.29143">
        <ele>378.9</ele>
        <time>2020-05-10T15:28:38Z</time>
      </trkpt>
      <trkpt lat="48.71768" lon="7.29167">
        <ele>377.1</ele>
        <time>2020-05-10T15:28:40Z</time>
      </trkpt>
      <trkpt lat="48.71769" lon="7.29179">
        <ele>376.1</ele>
        <time>2020-05-10T15:28:41Z</time>
      </trkpt>
      <trkpt lat="48.71771" lon="7.29192">
        <ele>375.1</ele>
        <time>2020-05-10T15:28:42Z</time>
      </trkpt>
      <trkpt lat="48.71772" lon="7.29217">
        <ele>373.1</ele>
        <time>2020-05-10T15:28:44Z</time>
      </trkpt>
      <trkpt lat="48.71773" lon="7.29243">
        <ele>371.1</ele>
        <time>2020-05-10T15:28:46Z</time>
      </trkpt>
      <trkpt lat="48.71772" lon="7.29266">
        <ele>369.4</ele>
        <time>2020-05-10T15:28:48Z</time>
      </trkpt>
      <trkpt lat="48.7177" lon="7.29286">
        <ele>367.8</ele>
        <time>2020-05-10T15:28:49Z</time>
      </trkpt>
      <trkpt lat="48.71762" lon="7.29307">
        <ele>365.8</ele>
        <time>2020-05-10T15:28:51Z</time>
      </trkpt>
      <trkpt lat="48.71757" lon="7.29317">
        <ele>364.9</ele>
        <time>2020-05-10T15:28:52Z</time>
      </trkpt>
      <trkpt lat="48.71747" lon="7.29335">
        <ele>363.1</ele>
        <time>2020-05-10T15:28:54Z</time>
      </trkpt>
      <trkpt lat="48.7174" lon="7.29358">
        <ele>361.3</ele>
        <time>2020-05-10T15:28:56Z</time>
      </trkpt>
      <trkpt lat="48.71735" lon="7.29381">
        <ele>359.5</ele>
        <time>2020-05-10T15:28:58Z</time>
      </trkpt>
      <trkpt lat="48.71732" lon="7.29405">
        <ele>357.8</ele>
        <time>2020-05-10T15:29:00Z</time>
      </trkpt>
      <trkpt lat="48.71731" lon="7.29421">
        <ele>356.6</ele>
        <time>2020-05-10T15:29:02Z</time>
      </trkpt>
      <trkpt lat="48.71734" lon="7.29442">
        <ele>354.9</ele>
        <time>2020-05-10T15:29:03Z</time>
      </trkpt>
      <trkpt lat="48.71737" lon="7.29467">
        <ele>353</ele>
        <time>2020-05-10T15:29:05Z</time>
      </trkpt>
      <trkpt lat="48.71742" lon="7.29492">
        <ele>351.1</ele>
        <time>2020-05-10T15:29:07Z</time>
      </trkpt>
      <trkpt lat="48.71746" lon="7.29504">
        <ele>350.1</ele>
        <time>2020-05-10T15:29:08Z</time>
      </trkpt>
      <trkpt lat="48.71751" lon="7.29515">
        <ele>349.1</ele>
        <time>2020-05-10T15:29:09Z</time>
      </trkpt>
      <trkpt lat="48.71757" lon="7.29528">
        <ele>348</ele>
        <time>2020-05-10T15:29:10Z</time>
      </trkpt>
      <trkpt lat="48.71763" lon="7.2954">
        <ele>347</ele>
        <time>2020-05-10T15:29:12Z</time>
      </trkpt>
      <trkpt lat="48.71775" lon="7.29559">
        <ele>344.9</ele>
        <time>2020-05-10T15:29:14Z</time>
      </trkpt>
      <trkpt lat="48.71789" lon="7.29578">
        <ele>342.8</ele>
        <time>2020-05-10T15:29:15Z</time>
      </trkpt>
      <trkpt lat="48.71794" lon="7.29586">
        <ele>342</ele>
        <time>2020-05-10T15:29:16Z</time>
      </trkpt>
      <trkpt lat="48.7181" lon="7.29606">
        <ele>339.6</ele>
        <time>2020-05-10T15:29:19Z</time>
      </trkpt>
      <trkpt lat="48.71819" lon="7.29621">
        <ele>337.9</ele>
        <time>2020-05-10T15:29:21Z</time>
      </trkpt>
      <trkpt lat="48.71829" lon="7.29638">
        <ele>336.1</ele>
        <time>2020-05-10T15:29:23Z</time>
      </trkpt>
      <trkpt lat="48.7184" lon="7.29657">
        <ele>334.4</ele>
        <time>2020-05-10T15:29:24Z</time>
      </trkpt>
      <trkpt lat="48.71851" lon="7.29678">
        <ele>332.5</ele>
        <time>2020-05-10T15:29:26Z</time>
      </trkpt>
      <trkpt lat="48.71856" lon="7.29689">
        <ele>331.5</ele>
        <time>2020-05-10T15:29:27Z</time>
      </trkpt>
      <trkpt lat="48.71867" lon="7.29712">
        <ele>329.6</ele>
        <time>2020-05-10T15:29:29Z</time>
      </trkpt>
      <trkpt lat="48.71879" lon="7.29735">
        <ele>327.5</ele>
        <time>2020-05-10T15:29:31Z</time>
      </trkpt>
      <trkpt lat="48.71892" lon="7.29759">
        <ele>325.6</ele>
        <time>2020-05-10T15:29:33Z</time>
      </trkpt>
      <trkpt lat="48.71898" lon="7.2977">
        <ele>324.8</ele>
        <time>2020-05-10T15:29:35Z</time>
      </trkpt>
      <trkpt lat="48.71905" lon="7.29781">
        <ele>324</ele>
        <time>2020-05-10T15:29:36Z</time>
      </trkpt>
      <trkpt lat="48.7191" lon="7.29792">
        <ele>323.4</ele>
        <time>2020-05-10T15:29:37Z</time>
      </trkpt>
      <trkpt lat="48.71921" lon="7.29814">
        <ele>322.1</ele>
        <time>2020-05-10T15:29:38Z</time>
      </trkpt>
      <trkpt lat="48.71928" lon="7.29826">
        <ele>321.2</ele>
        <time>2020-05-10T15:29:39Z</time>
      </trkpt>
      <trkpt lat="48.7194" lon="7.29849">
        <ele>319.2</ele>
        <time>2020-05-10T15:29:41Z</time>
      </trkpt>
      <trkpt lat="48.71945" lon="7.2986">
        <ele>318.3</ele>
        <time>2020-05-10T15:29:42Z</time>
      </trkpt>
      <trkpt lat="48.71957" lon="7.29884">
        <ele>316.3</ele>
        <time>2020-05-10T15:29:44Z</time>
      </trkpt>
      <trkpt lat="48.71962" lon="7.29895">
        <ele>315.4</ele>
        <time>2020-05-10T15:29:45Z</time>
      </trkpt>
      <trkpt lat="48.71972" lon="7.29917">
        <ele>313.6</ele>
        <time>2020-05-10T15:29:47Z</time>
      </trkpt>
      <trkpt lat="48.71977" lon="7.29927">
        <ele>312.9</ele>
        <time>2020-05-10T15:29:48Z</time>
      </trkpt>
      <trkpt lat="48.71986" lon="7.29947">
        <ele>311.5</ele>
        <time>2020-05-10T15:29:50Z</time>
      </trkpt>
      <trkpt lat="48.71992" lon="7.29958">
        <ele>310.7</ele>
        <time>2020-05-10T15:29:51Z</time>
      </trkpt>
      <trkpt lat="48.72" lon="7.29977">
        <ele>309.3</ele>
        <time>2020-05-10T15:29:53Z</time>
      </trkpt>
      <trkpt lat="48.72005" lon="7.29988">
        <ele>308.6</ele>
        <time>2020-05-10T15:29:54Z</time>
      </trkpt>
      <trkpt lat="48.72013" lon="7.30009">
        <ele>307</ele>
        <time>2020-05-10T15:29:56Z</time>
      </trkpt>
      <trkpt lat="48.7202" lon="7.30021">
        <ele>306</ele>
        <time>2020-05-10T15:29:58Z</time>
      </trkpt>
      <trkpt lat="48.72029" lon="7.30043">
        <ele>304.2</ele>
        <time>2020-05-10T15:29:59Z</time>
      </trkpt>
      <trkpt lat="48.72037" lon="7.30067">
        <ele>302.2</ele>
        <time>2020-05-10T15:30:01Z</time>
      </trkpt>
      <trkpt lat="48.72042" lon="7.30078">
        <ele>301.1</ele>
        <time>2020-05-10T15:30:02Z</time>
      </trkpt>
      <trkpt lat="48.72048" lon="7.301">
        <ele>299.2</ele>
        <time>2020-05-10T15:30:04Z</time>
      </trkpt>
      <trkpt lat="48.72052" lon="7.30112">
        <ele>298</ele>
        <time>2020-05-10T15:30:05Z</time>
      </trkpt>
      <trkpt lat="48.72061" lon="7.30136">
        <ele>295.6</ele>
        <time>2020-05-10T15:30:07Z</time>
      </trkpt>
      <trkpt lat="48.7207" lon="7.30159">
        <ele>293.3</ele>
        <time>2020-05-10T15:30:09Z</time>
      </trkpt>
      <trkpt lat="48.72073" lon="7.30171">
        <ele>292.2</ele>
        <time>2020-05-10T15:30:10Z</time>
      </trkpt>
      <trkpt lat="48.72079" lon="7.30193">
        <ele>290.2</ele>
        <time>2020-05-10T15:30:12Z</time>
      </trkpt>
      <trkpt lat="48.72082" lon="7.30205">
        <ele>289.2</ele>
        <time>2020-05-10T15:30:13Z</time>
      </trkpt>
      <trkpt lat="48.72082" lon="7.30228">
        <ele>287.4</ele>
        <time>2020-05-10T15:30:15Z</time>
      </trkpt>
      <trkpt lat="48.72078" lon="7.3025">
        <ele>285.8</ele>
        <time>2020-05-10T15:30:17Z</time>
      </trkpt>
      <trkpt lat="48.72075" lon="7.30259">
        <ele>285.3</ele>
        <time>2020-05-10T15:30:18Z</time>
      </trkpt>
      <trkpt lat="48.72068" lon="7.30276">
        <ele>284.9</ele>
        <time>2020-05-10T15:30:20Z</time>
      </trkpt>
      <trkpt lat="48.72057" lon="7.30294">
        <ele>284.3</ele>
        <time>2020-05-10T15:30:22Z</time>
      </trkpt>
      <trkpt lat="48.7205" lon="7.30301">
        <ele>284</ele>
        <time>2020-05-10T15:30:23Z</time>
      </trkpt>
      <trkpt lat="48.72042" lon="7.30307">
        <ele>283.7</ele>
        <time>2020-05-10T15:30:24Z</time>
      </trkpt>
      <trkpt lat="48.72034" lon="7.30315">
        <ele>283.4</ele>
        <time>2020-05-10T15:30:25Z</time>
      </trkpt>
      <trkpt lat="48.72026" lon="7.3032">
        <ele>283</ele>
        <time>2020-05-10T15:30:26Z</time>
      </trkpt>
      <trkpt lat="48.72019" lon="7.30326">
        <ele>282.7</ele>
        <time>2020-05-10T15:30:27Z</time>
      </trkpt>
      <trkpt lat="48.72006" lon="7.30336">
        <ele>282.1</ele>
        <time>2020-05-10T15:30:29Z</time>
      </trkpt>
      <trkpt lat="48.71995" lon="7.30345">
        <ele>281.3</ele>
        <time>2020-05-10T15:30:31Z</time>
      </trkpt>
      <trkpt lat="48.71987" lon="7.30349">
        <ele>280.7</ele>
        <time>2020-05-10T15:30:32Z</time>
      </trkpt>
      <trkpt lat="48.7197" lon="7.30354">
        <ele>279.6</ele>
        <time>2020-05-10T15:30:34Z</time>
      </trkpt>
      <trkpt lat="48.71962" lon="7.30357">
        <ele>279.1</ele>
        <time>2020-05-10T15:30:35Z</time>
      </trkpt>
      <trkpt lat="48.71953" lon="7.3036">
        <ele>278.8</ele>
        <time>2020-05-10T15:30:36Z</time>
      </trkpt>
      <trkpt lat="48.71936" lon="7.30361">
        <ele>278.5</ele>
        <time>2020-05-10T15:30:38Z</time>
      </trkpt>
      <trkpt lat="48.71928" lon="7.30362">
        <ele>278</ele>
        <time>2020-05-10T15:30:39Z</time>
      </trkpt>
      <trkpt lat="48.7192" lon="7.30364">
        <ele>277.5</ele>
        <time>2020-05-10T15:30:40Z</time>
      </trkpt>
      <trkpt lat="48.71911" lon="7.30366">
        <ele>277</ele>
        <time>2020-05-10T15:30:41Z</time>
      </trkpt>
      <trkpt lat="48.71903" lon="7.30368">
        <ele>276.5</ele>
        <time>2020-05-10T15:30:42Z</time>
      </trkpt>
      <trkpt lat="48.71888" lon="7.30377">
        <ele>275.6</ele>
        <time>2020-05-10T15:30:44Z</time>
      </trkpt>
      <trkpt lat="48.71873" lon="7.30389">
        <ele>274.8</ele>
        <time>2020-05-10T15:30:46Z</time>
      </trkpt>
      <trkpt lat="48.71859" lon="7.30401">
        <ele>274.1</ele>
        <time>2020-05-10T15:30:48Z</time>
      </trkpt>
    </trkseg>
  </trk>
</gpx>